DAL69 YSSY-KSFO
Flight info
| Callsign | DAL69 |
|---|---|
| Flight time | N/A |
| Altitude | 39000 |
| Route | DIPSO G595 SOTKI DCT UBLIN A579 TANIL DCT NN B581 WOOBY DCT 02N160W 11N150W DCT CAMOS DCT 20N143W 24N140W 28N135W 32N130W DCT CINNY PIRAT3 |
| Aircraft | B78X/H-SDE1E2E3FGHIJ2J3J4J5M1RWXY/LB1D1 |
Departure
| Time | 2026-05-06 09:27 |
|---|---|
| Airport | Sydney Kingsford Smith International Airport (YSSY) |
Arrival
| Time | N/A |
|---|---|
| Airport | San Francisco International Airport (KSFO) |
| Time | Latitude | Longitude | Altitude | Speed | Heading |
|---|---|---|---|---|---|
| 2026-05-06 09:23 | -33.95830 | 151.17705 | 34 ft | 15 kts | 168° |
| 2026-05-06 09:23 | -33.95936 | 151.17732 | 34 ft | 14 kts | 168° |
| 2026-05-06 09:24 | -33.96006 | 151.17750 | 34 ft | 17 kts | 168° |
| 2026-05-06 09:24 | -33.96119 | 151.17781 | 34 ft | 16 kts | 167° |
| 2026-05-06 09:24 | -33.96224 | 151.17809 | 34 ft | 15 kts | 167° |
| 2026-05-06 09:24 | -33.96323 | 151.17834 | 34 ft | 16 kts | 168° |
| 2026-05-06 09:25 | -33.96417 | 151.17899 | 34 ft | 15 kts | 119° |
| 2026-05-06 09:25 | -33.96427 | 151.17975 | 34 ft | 0 kts | 80° |
| 2026-05-06 09:25 | -33.96417 | 151.18017 | 34 ft | 11 kts | 62° |
| 2026-05-06 09:26 | -33.96348 | 151.18042 | 34 ft | 0 kts | 355° |
| 2026-05-06 09:26 | -33.96266 | 151.18025 | 34 ft | 43 kts | 347° |
| 2026-05-06 09:27 | -33.95696 | 151.17874 | 34 ft | 120 kts | 348° |
| 2026-05-06 09:27 | -33.94670 | 151.17601 | 35 ft | 179 kts | 347° |
| 2026-05-06 09:27 | -33.93347 | 151.17246 | 163 ft | 209 kts | 347° |
| 2026-05-06 09:27 | -33.91906 | 151.16860 | 861 ft | 211 kts | 348° |
| 2026-05-06 09:28 | -33.90464 | 151.16712 | 1876 ft | 213 kts | 2° |
| 2026-05-06 09:28 | -33.89975 | 151.16847 | 2077 ft | 217 kts | 12° |
| 2026-05-06 09:28 | -33.89594 | 151.17033 | 2212 ft | 220 kts | 19° |
| 2026-05-06 09:28 | -33.88593 | 151.17994 | 2606 ft | 230 kts | 44° |
| 2026-05-06 09:29 | -33.87913 | 151.19784 | 3066 ft | 245 kts | 72° |
| 2026-05-06 09:29 | -33.87977 | 151.21890 | 3512 ft | 259 kts | 94° |
| 2026-05-06 09:29 | -33.88332 | 151.24012 | 4070 ft | 268 kts | 99° |
| 2026-05-06 09:29 | -33.88733 | 151.26301 | 4531 ft | 281 kts | 100° |
| 2026-05-06 09:30 | -33.89140 | 151.28647 | 5066 ft | 291 kts | 100° |
| 2026-05-06 09:30 | -33.89491 | 151.30713 | 5556 ft | 297 kts | 100° |
| 2026-05-06 09:30 | -33.89898 | 151.33177 | 6132 ft | 304 kts | 100° |
| 2026-05-06 09:30 | -33.90296 | 151.35662 | 6750 ft | 308 kts | 100° |
| 2026-05-06 09:31 | -33.90380 | 151.36195 | 6889 ft | 308 kts | 100° |
| 2026-05-06 09:33 | -33.90451 | 151.36648 | 7008 ft | 308 kts | 100° |
| 2026-05-06 09:33 | -33.90847 | 151.39240 | 7702 ft | 310 kts | 100° |
| 2026-05-06 09:34 | -33.91223 | 151.41804 | 8317 ft | 314 kts | 99° |
| 2026-05-06 09:34 | -33.91522 | 151.43924 | 8775 ft | 318 kts | 99° |
| 2026-05-06 09:34 | -33.91881 | 151.46566 | 9352 ft | 322 kts | 99° |
| 2026-05-06 09:34 | -33.92225 | 151.49233 | 9938 ft | 325 kts | 98° |
| 2026-05-06 09:35 | -33.92558 | 151.51955 | 10438 ft | 331 kts | 98° |
| 2026-05-06 09:35 | -33.92934 | 151.54677 | 10890 ft | 337 kts | 100° |
| 2026-05-06 09:35 | -33.93276 | 151.57501 | 11361 ft | 343 kts | 96° |
| 2026-05-06 09:35 | -33.93424 | 151.60378 | 11877 ft | 347 kts | 91° |
| 2026-05-06 09:36 | -33.93418 | 151.63300 | 12431 ft | 349 kts | 88° |
| 2026-05-06 09:36 | -33.93318 | 151.66245 | 12949 ft | 352 kts | 86° |
| 2026-05-06 09:36 | -33.93166 | 151.69199 | 13446 ft | 355 kts | 85° |
| 2026-05-06 09:36 | -33.92987 | 151.72185 | 13931 ft | 358 kts | 85° |
| 2026-05-06 09:37 | -33.92795 | 151.75198 | 14406 ft | 362 kts | 84° |
| 2026-05-06 09:37 | -33.92598 | 151.78219 | 14873 ft | 365 kts | 84° |
| 2026-05-06 09:37 | -33.92396 | 151.81279 | 15323 ft | 368 kts | 84° |
| 2026-05-06 09:37 | -33.92191 | 151.84362 | 15765 ft | 371 kts | 84° |
| 2026-05-06 09:38 | -33.91985 | 151.87461 | 16190 ft | 373 kts | 84° |
| 2026-05-06 09:38 | -33.91775 | 151.90594 | 16604 ft | 376 kts | 84° |
| 2026-05-06 09:38 | -33.91563 | 151.93747 | 17020 ft | 379 kts | 84° |
| 2026-05-06 09:38 | -33.91349 | 151.96910 | 17422 ft | 382 kts | 84° |
| 2026-05-06 09:39 | -33.91133 | 152.00113 | 17816 ft | 384 kts | 84° |
| 2026-05-06 09:39 | -33.90921 | 152.03328 | 18189 ft | 387 kts | 84° |
| 2026-05-06 09:39 | -33.90813 | 152.06583 | 18579 ft | 389 kts | 87° |
| 2026-05-06 09:39 | -33.90758 | 152.09809 | 18960 ft | 391 kts | 88° |
| 2026-05-06 09:40 | -33.90734 | 152.13139 | 19348 ft | 393 kts | 89° |
| 2026-05-06 09:40 | -33.90736 | 152.16399 | 19705 ft | 396 kts | 89° |
| 2026-05-06 09:40 | -33.90769 | 152.23068 | 20427 ft | 400 kts | 89° |
| 2026-05-06 09:41 | -33.90792 | 152.26416 | 20778 ft | 402 kts | 89° |
| 2026-05-06 09:41 | -33.90814 | 152.29793 | 21123 ft | 404 kts | 90° |
| 2026-05-06 09:41 | -33.90836 | 152.33174 | 21454 ft | 406 kts | 89° |
| 2026-05-06 09:41 | -33.90857 | 152.36600 | 21756 ft | 409 kts | 89° |
| 2026-05-06 09:42 | -33.90877 | 152.40027 | 22087 ft | 411 kts | 89° |
| 2026-05-06 09:42 | -33.90896 | 152.43481 | 22426 ft | 412 kts | 89° |
| 2026-05-06 09:42 | -33.90914 | 152.46935 | 22747 ft | 414 kts | 89° |
| 2026-05-06 09:42 | -33.90931 | 152.50423 | 23030 ft | 417 kts | 89° |
| 2026-05-06 09:43 | -33.90947 | 152.53925 | 23334 ft | 419 kts | 89° |
| 2026-05-06 09:43 | -33.90962 | 152.57434 | 23640 ft | 421 kts | 89° |
| 2026-05-06 09:43 | -33.90977 | 152.60981 | 23925 ft | 423 kts | 89° |
| 2026-05-06 09:43 | -33.90990 | 152.64531 | 24203 ft | 425 kts | 89° |
| 2026-05-06 09:44 | -33.91003 | 152.68107 | 24477 ft | 428 kts | 89° |
| 2026-05-06 09:44 | -33.91015 | 152.71650 | 24741 ft | 430 kts | 89° |
| 2026-05-06 09:44 | -33.91025 | 152.75262 | 24992 ft | 433 kts | 89° |
| 2026-05-06 09:44 | -33.91035 | 152.78913 | 25237 ft | 436 kts | 89° |
| 2026-05-06 09:45 | -33.91043 | 152.82561 | 25497 ft | 438 kts | 89° |
| 2026-05-06 09:45 | -33.91051 | 152.86238 | 25762 ft | 440 kts | 89° |
| 2026-05-06 09:45 | -33.91057 | 152.89939 | 26002 ft | 442 kts | 89° |
| 2026-05-06 09:45 | -33.91063 | 152.93639 | 26238 ft | 445 kts | 89° |
| 2026-05-06 09:46 | -33.91067 | 152.97379 | 26467 ft | 447 kts | 89° |
| 2026-05-06 09:46 | -33.91070 | 153.01141 | 26717 ft | 449 kts | 89° |
| 2026-05-06 09:46 | -33.91072 | 153.04915 | 26949 ft | 451 kts | 88° |
| 2026-05-06 09:46 | -33.91073 | 153.08647 | 27171 ft | 453 kts | 88° |
| 2026-05-06 09:47 | -33.91072 | 153.12458 | 27392 ft | 456 kts | 88° |
| 2026-05-06 09:47 | -33.91070 | 153.16280 | 27624 ft | 457 kts | 88° |
| 2026-05-06 09:47 | -33.91068 | 153.20114 | 27829 ft | 460 kts | 88° |
| 2026-05-06 09:47 | -33.91063 | 153.23951 | 28037 ft | 462 kts | 88° |
| 2026-05-06 09:48 | -33.91059 | 153.27858 | 28260 ft | 464 kts | 88° |
| 2026-05-06 09:48 | -33.91052 | 153.31748 | 28483 ft | 465 kts | 88° |
| 2026-05-06 09:48 | -33.91044 | 153.35648 | 28688 ft | 468 kts | 88° |
| 2026-05-06 09:48 | -33.91036 | 153.39579 | 28903 ft | 469 kts | 88° |
| 2026-05-06 09:49 | -33.91025 | 153.43515 | 29097 ft | 471 kts | 88° |
| 2026-05-06 09:49 | -33.91013 | 153.47474 | 29281 ft | 474 kts | 88° |
| 2026-05-06 09:49 | -33.91000 | 153.51381 | 29471 ft | 475 kts | 88° |
| 2026-05-06 09:49 | -33.90986 | 153.55374 | 29668 ft | 477 kts | 88° |
| 2026-05-06 09:50 | -33.90970 | 153.59387 | 29878 ft | 479 kts | 88° |
| 2026-05-06 09:50 | -33.90953 | 153.63409 | 30086 ft | 480 kts | 88° |
| 2026-05-06 09:50 | -33.90935 | 153.67438 | 30284 ft | 481 kts | 88° |
| 2026-05-06 09:50 | -33.90916 | 153.71484 | 30438 ft | 484 kts | 88° |
| 2026-05-06 09:51 | -33.90895 | 153.75544 | 30593 ft | 486 kts | 88° |
| 2026-05-06 09:51 | -33.90873 | 153.79614 | 30760 ft | 488 kts | 88° |
| 2026-05-06 09:51 | -33.90849 | 153.83672 | 30933 ft | 490 kts | 88° |
| 2026-05-06 09:51 | -33.90823 | 153.87785 | 31109 ft | 492 kts | 87° |
| 2026-05-06 09:52 | -33.90796 | 153.91912 | 31283 ft | 493 kts | 87° |
| 2026-05-06 09:52 | -33.90767 | 153.96045 | 31443 ft | 495 kts | 87° |
| 2026-05-06 09:52 | -33.90737 | 154.00199 | 31596 ft | 497 kts | 87° |
| 2026-05-06 09:52 | -33.90706 | 154.04361 | 31747 ft | 499 kts | 87° |
| 2026-05-06 09:53 | -33.90673 | 154.08575 | 31908 ft | 501 kts | 87° |
| 2026-05-06 09:53 | -33.90639 | 154.12771 | 32064 ft | 503 kts | 87° |
| 2026-05-06 09:53 | -33.90602 | 154.17007 | 32224 ft | 505 kts | 87° |
| 2026-05-06 09:53 | -33.90565 | 154.21170 | 32378 ft | 506 kts | 87° |
| 2026-05-06 09:54 | -33.90526 | 154.25423 | 32520 ft | 508 kts | 87° |
| 2026-05-06 09:54 | -33.90485 | 154.29689 | 32659 ft | 510 kts | 87° |
| 2026-05-06 09:54 | -33.90442 | 154.33964 | 32798 ft | 512 kts | 86° |
| 2026-05-06 09:54 | -33.90399 | 154.38255 | 32962 ft | 514 kts | 86° |
| 2026-05-06 09:55 | -33.90353 | 154.42571 | 33097 ft | 516 kts | 86° |
| 2026-05-06 09:55 | -33.90287 | 154.46889 | 33227 ft | 517 kts | 85° |
| 2026-05-06 09:55 | -33.90092 | 154.51231 | 33368 ft | 518 kts | 83° |
| 2026-05-06 09:55 | -33.89817 | 154.55542 | 33513 ft | 519 kts | 82° |
| 2026-05-06 09:56 | -33.89490 | 154.59883 | 33676 ft | 520 kts | 81° |
| 2026-05-06 09:56 | -33.89140 | 154.64166 | 33822 ft | 521 kts | 81° |
| 2026-05-06 09:56 | -33.88767 | 154.68569 | 33946 ft | 523 kts | 80° |
| 2026-05-06 09:56 | -33.88394 | 154.72927 | 34063 ft | 525 kts | 80° |
| 2026-05-06 09:57 | -33.88024 | 154.77256 | 34190 ft | 527 kts | 80° |
| 2026-05-06 09:57 | -33.87650 | 154.81650 | 34349 ft | 528 kts | 80° |
| 2026-05-06 09:57 | -33.87274 | 154.86065 | 34505 ft | 529 kts | 80° |
| 2026-05-06 09:57 | -33.86897 | 154.90487 | 34664 ft | 530 kts | 80° |
| 2026-05-06 09:58 | -33.86519 | 154.94897 | 34811 ft | 532 kts | 80° |
| 2026-05-06 09:58 | -33.86137 | 154.99334 | 34939 ft | 534 kts | 80° |
| 2026-05-06 09:58 | -33.85753 | 155.03774 | 35066 ft | 535 kts | 80° |
| 2026-05-06 09:58 | -33.85366 | 155.08240 | 35192 ft | 537 kts | 80° |
| 2026-05-06 09:59 | -33.83752 | 155.16944 | 35323 ft | 529 kts | 62° |
| 2026-05-06 09:59 | -33.82069 | 155.20837 | 35534 ft | 518 kts | 52° |
| 2026-05-06 09:59 | -33.80047 | 155.24383 | 35799 ft | 511 kts | 46° |
| 2026-05-06 10:00 | -33.77878 | 155.27736 | 35921 ft | 509 kts | 43° |
| 2026-05-06 10:00 | -33.75608 | 155.31031 | 36028 ft | 510 kts | 42° |
| 2026-05-06 10:00 | -33.71036 | 155.37514 | 36231 ft | 513 kts | 42° |
| 2026-05-06 10:01 | -33.68724 | 155.40797 | 36336 ft | 515 kts | 42° |
| 2026-05-06 10:01 | -33.66412 | 155.44095 | 36442 ft | 517 kts | 42° |
| 2026-05-06 10:01 | -33.64098 | 155.47404 | 36551 ft | 519 kts | 42° |
| 2026-05-06 10:01 | -33.61772 | 155.50733 | 36672 ft | 520 kts | 42° |
| 2026-05-06 10:02 | -33.59450 | 155.54058 | 36844 ft | 520 kts | 42° |
| 2026-05-06 10:02 | -33.57130 | 155.57380 | 37055 ft | 519 kts | 42° |
| 2026-05-06 10:02 | -33.54810 | 155.60699 | 37254 ft | 518 kts | 42° |
| 2026-05-06 10:02 | -33.52495 | 155.64006 | 37437 ft | 517 kts | 42° |
| 2026-05-06 10:03 | -33.50179 | 155.67310 | 37606 ft | 517 kts | 42° |
| 2026-05-06 10:03 | -33.47865 | 155.70610 | 37769 ft | 516 kts | 42° |
| 2026-05-06 10:03 | -33.45556 | 155.73896 | 37914 ft | 516 kts | 42° |
| 2026-05-06 10:03 | -33.43245 | 155.77183 | 38052 ft | 515 kts | 42° |
| 2026-05-06 10:04 | -33.40967 | 155.80419 | 38175 ft | 515 kts | 42° |
| 2026-05-06 10:04 | -33.38657 | 155.83696 | 38297 ft | 514 kts | 42° |
| 2026-05-06 10:04 | -33.36355 | 155.86960 | 38398 ft | 514 kts | 42° |
| 2026-05-06 10:04 | -33.34046 | 155.90232 | 38493 ft | 515 kts | 42° |
| 2026-05-06 10:05 | -33.29426 | 155.96771 | 38669 ft | 515 kts | 42° |
| 2026-05-06 10:05 | -33.24796 | 156.03311 | 38837 ft | 515 kts | 42° |
| 2026-05-06 10:06 | -33.20166 | 156.09842 | 38997 ft | 514 kts | 42° |
| 2026-05-06 10:06 | -33.15546 | 156.16346 | 39092 ft | 514 kts | 42° |
| 2026-05-06 10:07 | -33.10907 | 156.22861 | 39110 ft | 516 kts | 42° |
| 2026-05-06 10:07 | -33.06238 | 156.29407 | 39122 ft | 518 kts | 42° |
| 2026-05-06 10:08 | -33.01556 | 156.35964 | 39122 ft | 521 kts | 42° |
| 2026-05-06 10:08 | -32.96870 | 156.42511 | 39116 ft | 524 kts | 42° |
| 2026-05-06 10:09 | -32.92132 | 156.49121 | 39129 ft | 526 kts | 42° |
| 2026-05-06 10:09 | -32.87356 | 156.55773 | 39118 ft | 529 kts | 42° |
| 2026-05-06 10:10 | -32.82555 | 156.62444 | 39113 ft | 533 kts | 42° |
| 2026-05-06 10:10 | -32.77714 | 156.69161 | 39125 ft | 536 kts | 42° |
| 2026-05-06 10:11 | -32.73670 | 156.74762 | 39115 ft | 539 kts | 42° |
| 2026-05-06 10:11 | -32.68757 | 156.81555 | 39118 ft | 543 kts | 42° |
| 2026-05-06 10:12 | -32.63823 | 156.88369 | 39122 ft | 544 kts | 42° |
| 2026-05-06 10:12 | -32.58883 | 156.95179 | 39114 ft | 543 kts | 41° |
| 2026-05-06 10:13 | -32.53936 | 157.01981 | 39126 ft | 544 kts | 41° |
| 2026-05-06 10:13 | -32.48999 | 157.08758 | 39116 ft | 544 kts | 41° |
| 2026-05-06 10:14 | -32.44089 | 157.15487 | 39120 ft | 543 kts | 41° |
| 2026-05-06 10:14 | -32.39141 | 157.22251 | 39127 ft | 545 kts | 41° |
| 2026-05-06 10:15 | -32.34176 | 157.29031 | 39113 ft | 545 kts | 41° |
| 2026-05-06 10:15 | -32.29197 | 157.35816 | 39124 ft | 545 kts | 41° |
| 2026-05-06 10:16 | -32.24218 | 157.42588 | 39126 ft | 545 kts | 41° |
| 2026-05-06 10:16 | -32.19271 | 157.49305 | 39116 ft | 545 kts | 41° |
| 2026-05-06 10:17 | -32.14260 | 157.56096 | 39128 ft | 546 kts | 41° |
| 2026-05-06 10:17 | -32.09283 | 157.62826 | 39123 ft | 547 kts | 41° |
| 2026-05-06 10:18 | -32.04279 | 157.69586 | 39121 ft | 546 kts | 41° |
| 2026-05-06 10:18 | -31.99298 | 157.76299 | 39132 ft | 547 kts | 41° |
| 2026-05-06 10:19 | -31.94269 | 157.83066 | 39118 ft | 546 kts | 41° |
| 2026-05-06 10:19 | -31.89344 | 157.89682 | 39130 ft | 546 kts | 41° |
| 2026-05-06 10:20 | -31.84257 | 157.96501 | 39122 ft | 546 kts | 41° |
| 2026-05-06 10:20 | -31.79245 | 158.03208 | 39125 ft | 546 kts | 41° |
| 2026-05-06 10:21 | -31.74233 | 158.09905 | 39134 ft | 547 kts | 41° |
| 2026-05-06 10:21 | -31.69217 | 158.16594 | 39121 ft | 547 kts | 41° |
| 2026-05-06 10:22 | -31.64158 | 158.23328 | 39132 ft | 547 kts | 41° |
| 2026-05-06 10:22 | -31.59122 | 158.30019 | 39126 ft | 547 kts | 41° |
| 2026-05-06 10:23 | -31.54110 | 158.36667 | 39125 ft | 547 kts | 41° |
| 2026-05-06 10:23 | -31.49053 | 158.43360 | 39138 ft | 549 kts | 40° |
| 2026-05-06 10:24 | -31.43985 | 158.50060 | 39123 ft | 549 kts | 40° |
| 2026-05-06 10:24 | -31.38923 | 158.56743 | 39129 ft | 549 kts | 40° |
| 2026-05-06 10:25 | -31.33843 | 158.63431 | 39133 ft | 549 kts | 40° |
| 2026-05-06 10:25 | -31.28766 | 158.70107 | 39124 ft | 550 kts | 40° |
| 2026-05-06 10:26 | -31.23681 | 158.76779 | 39137 ft | 549 kts | 40° |
| 2026-05-06 10:26 | -31.18592 | 158.83447 | 39128 ft | 549 kts | 40° |
| 2026-05-06 10:27 | -31.13511 | 158.90092 | 39143 ft | 549 kts | 40° |
| 2026-05-06 10:27 | -31.08418 | 158.96741 | 39155 ft | 548 kts | 40° |
| 2026-05-06 10:28 | -31.03327 | 159.03377 | 39145 ft | 548 kts | 40° |
| 2026-05-06 10:28 | -30.98242 | 159.09993 | 39152 ft | 548 kts | 40° |
| 2026-05-06 10:29 | -30.93175 | 159.16574 | 39155 ft | 548 kts | 40° |
| 2026-05-06 10:29 | -30.88048 | 159.23222 | 39146 ft | 549 kts | 40° |
| 2026-05-06 10:30 | -30.82968 | 159.29795 | 39157 ft | 549 kts | 40° |
| 2026-05-06 10:30 | -30.77852 | 159.36403 | 39152 ft | 551 kts | 40° |
| 2026-05-06 10:31 | -30.72726 | 159.43018 | 39149 ft | 550 kts | 40° |
| 2026-05-06 10:31 | -30.67584 | 159.49639 | 39161 ft | 551 kts | 40° |
| 2026-05-06 10:32 | -30.62454 | 159.56235 | 39149 ft | 551 kts | 40° |
| 2026-05-06 10:32 | -30.57298 | 159.62848 | 39160 ft | 553 kts | 40° |
| 2026-05-06 10:33 | -30.52126 | 159.69474 | 39157 ft | 553 kts | 39° |
| 2026-05-06 10:33 | -30.46956 | 159.76088 | 39155 ft | 553 kts | 39° |
| 2026-05-06 10:34 | -30.41814 | 159.82654 | 39166 ft | 553 kts | 39° |
| 2026-05-06 10:34 | -30.36604 | 159.89292 | 39154 ft | 555 kts | 39° |
| 2026-05-06 10:35 | -30.31405 | 159.95907 | 39166 ft | 555 kts | 39° |
| 2026-05-06 10:35 | -30.26235 | 160.02475 | 39161 ft | 555 kts | 39° |
| 2026-05-06 10:36 | -30.21027 | 160.09080 | 39158 ft | 555 kts | 39° |
| 2026-05-06 10:36 | -30.15826 | 160.15663 | 39170 ft | 555 kts | 39° |
| 2026-05-06 10:37 | -30.10609 | 160.22257 | 39157 ft | 555 kts | 39° |
| 2026-05-06 10:37 | -30.05393 | 160.28838 | 39167 ft | 555 kts | 39° |
| 2026-05-06 10:38 | -30.00181 | 160.35402 | 39167 ft | 555 kts | 39° |
| 2026-05-06 10:38 | -29.94988 | 160.41932 | 39160 ft | 555 kts | 39° |
| 2026-05-06 10:39 | -29.89765 | 160.48487 | 39173 ft | 557 kts | 39° |
| 2026-05-06 10:39 | -29.84514 | 160.55067 | 39164 ft | 557 kts | 39° |
| 2026-05-06 10:40 | -29.79275 | 160.61624 | 39165 ft | 556 kts | 39° |
| 2026-05-06 10:40 | -29.74019 | 160.68190 | 39175 ft | 557 kts | 39° |
| 2026-05-06 10:41 | -29.68772 | 160.74732 | 39161 ft | 556 kts | 39° |
| 2026-05-06 10:41 | -29.63510 | 160.81281 | 39176 ft | 558 kts | 39° |
| 2026-05-06 10:42 | -29.58232 | 160.87841 | 39168 ft | 557 kts | 39° |
| 2026-05-06 10:42 | -29.53004 | 160.94330 | 39168 ft | 557 kts | 39° |
| 2026-05-06 10:43 | -29.47739 | 161.00852 | 39178 ft | 557 kts | 39° |
| 2026-05-06 10:44 | -29.39831 | 161.10627 | 39168 ft | 559 kts | 39° |
| 2026-05-06 10:44 | -29.34534 | 161.17161 | 39178 ft | 559 kts | 39° |
| 2026-05-06 10:45 | -29.29233 | 161.23692 | 39166 ft | 558 kts | 39° |
| 2026-05-06 10:45 | -29.23929 | 161.30216 | 39180 ft | 558 kts | 39° |
| 2026-05-06 10:46 | -29.18637 | 161.36712 | 39173 ft | 558 kts | 39° |
| 2026-05-06 10:46 | -29.13331 | 161.43215 | 39156 ft | 558 kts | 39° |
| 2026-05-06 10:47 | -29.08026 | 161.49706 | 39135 ft | 558 kts | 39° |
| 2026-05-06 10:47 | -29.02747 | 161.56154 | 39133 ft | 560 kts | 39° |
| 2026-05-06 10:48 | -28.97422 | 161.62650 | 39140 ft | 560 kts | 39° |
| 2026-05-06 10:48 | -28.92103 | 161.69129 | 39127 ft | 559 kts | 39° |
| 2026-05-06 10:49 | -28.86780 | 161.75602 | 39140 ft | 559 kts | 39° |
| 2026-05-06 10:49 | -28.81455 | 161.82064 | 39136 ft | 559 kts | 39° |
| 2026-05-06 10:50 | -28.76121 | 161.88527 | 39130 ft | 560 kts | 39° |
| 2026-05-06 10:50 | -28.70774 | 161.94996 | 39143 ft | 560 kts | 39° |
| 2026-05-06 10:51 | -28.65428 | 162.01457 | 39131 ft | 560 kts | 39° |
| 2026-05-06 10:51 | -28.60077 | 162.07910 | 39140 ft | 560 kts | 39° |
| 2026-05-06 10:52 | -28.54730 | 162.14350 | 39138 ft | 561 kts | 39° |
| 2026-05-06 10:52 | -28.49358 | 162.20809 | 39132 ft | 561 kts | 39° |
| 2026-05-06 10:53 | -28.44034 | 162.27200 | 39146 ft | 561 kts | 39° |
| 2026-05-06 10:53 | -28.38664 | 162.33636 | 39132 ft | 561 kts | 39° |
| 2026-05-06 10:54 | -28.33290 | 162.40067 | 39142 ft | 561 kts | 39° |
| 2026-05-06 10:54 | -28.27918 | 162.46485 | 39141 ft | 561 kts | 39° |
| 2026-05-06 10:55 | -28.22533 | 162.52907 | 39133 ft | 561 kts | 39° |
| 2026-05-06 10:55 | -28.17154 | 162.59314 | 39146 ft | 561 kts | 39° |
| 2026-05-06 10:56 | -28.11766 | 162.65723 | 39134 ft | 561 kts | 39° |
| 2026-05-06 10:56 | -28.06377 | 162.72122 | 39142 ft | 561 kts | 39° |
| 2026-05-06 10:57 | -28.01897 | 162.77433 | 39146 ft | 561 kts | 39° |
| 2026-05-06 10:57 | -27.96492 | 162.83829 | 39132 ft | 563 kts | 39° |
| 2026-05-06 10:58 | -27.90196 | 162.91271 | 39145 ft | 562 kts | 39° |
| 2026-05-06 10:58 | -27.84910 | 162.97863 | 39139 ft | 569 kts | 44° |
| 2026-05-06 10:59 | -27.80812 | 163.03691 | 39145 ft | 571 kts | 46° |
| 2026-05-06 10:59 | -27.76124 | 163.10956 | 39134 ft | 573 kts | 49° |
| 2026-05-06 11:00 | -27.71592 | 163.18370 | 39148 ft | 575 kts | 50° |
| 2026-05-06 11:00 | -27.67075 | 163.25822 | 39134 ft | 574 kts | 50° |
| 2026-05-06 11:01 | -27.62554 | 163.33242 | 39145 ft | 574 kts | 50° |
| 2026-05-06 11:01 | -27.58011 | 163.40664 | 39144 ft | 575 kts | 50° |
| 2026-05-06 11:02 | -27.53461 | 163.48086 | 39134 ft | 575 kts | 50° |
| 2026-05-06 11:02 | -27.48914 | 163.55490 | 39149 ft | 575 kts | 50° |
| 2026-05-06 11:03 | -27.44367 | 163.62883 | 39138 ft | 574 kts | 50° |
| 2026-05-06 11:03 | -27.39809 | 163.70281 | 39143 ft | 574 kts | 50° |
| 2026-05-06 11:04 | -27.35255 | 163.77661 | 39147 ft | 574 kts | 50° |
| 2026-05-06 11:04 | -27.30689 | 163.85047 | 39136 ft | 574 kts | 50° |
| 2026-05-06 11:05 | -27.26159 | 163.92362 | 39148 ft | 575 kts | 50° |
| 2026-05-06 11:05 | -27.21581 | 163.99742 | 39142 ft | 574 kts | 50° |
| 2026-05-06 11:06 | -27.17001 | 164.07113 | 39142 ft | 575 kts | 50° |
| 2026-05-06 11:06 | -27.12427 | 164.14463 | 39149 ft | 575 kts | 50° |
| 2026-05-06 11:07 | -27.07836 | 164.21830 | 39134 ft | 575 kts | 50° |
| 2026-05-06 11:07 | -27.03248 | 164.29180 | 39149 ft | 575 kts | 50° |
| 2026-05-06 11:08 | -26.98673 | 164.36492 | 39139 ft | 576 kts | 50° |
| 2026-05-06 11:08 | -26.94089 | 164.43811 | 39142 ft | 575 kts | 50° |
| 2026-05-06 11:09 | -26.89486 | 164.51147 | 39148 ft | 575 kts | 50° |
| 2026-05-06 11:09 | -26.84885 | 164.58468 | 39137 ft | 575 kts | 50° |
| 2026-05-06 11:10 | -26.80271 | 164.65796 | 39145 ft | 576 kts | 51° |
| 2026-05-06 11:10 | -26.75656 | 164.73117 | 39142 ft | 575 kts | 51° |
| 2026-05-06 11:11 | -26.71039 | 164.80428 | 39137 ft | 574 kts | 50° |
| 2026-05-06 11:11 | -26.66431 | 164.87712 | 39148 ft | 575 kts | 51° |
| 2026-05-06 11:12 | -26.61799 | 164.95021 | 39136 ft | 575 kts | 51° |
| 2026-05-06 11:12 | -26.57177 | 165.02305 | 39143 ft | 574 kts | 51° |
| 2026-05-06 11:13 | -26.52545 | 165.09592 | 39143 ft | 575 kts | 51° |
| 2026-05-06 11:13 | -26.47909 | 165.16872 | 39133 ft | 575 kts | 51° |
| 2026-05-06 11:14 | -26.43301 | 165.24101 | 39145 ft | 575 kts | 51° |
| 2026-05-06 11:14 | -26.38641 | 165.31395 | 39137 ft | 575 kts | 51° |
| 2026-05-06 11:15 | -26.34019 | 165.38621 | 39133 ft | 574 kts | 51° |
| 2026-05-06 11:15 | -26.29376 | 165.45866 | 39145 ft | 575 kts | 51° |
| 2026-05-06 11:16 | -26.24727 | 165.53112 | 39130 ft | 574 kts | 51° |
| 2026-05-06 11:16 | -26.20078 | 165.60343 | 39143 ft | 575 kts | 51° |
| 2026-05-06 11:17 | -26.15420 | 165.67578 | 39134 ft | 575 kts | 51° |
| 2026-05-06 11:17 | -26.10765 | 165.74799 | 39128 ft | 574 kts | 51° |
| 2026-05-06 11:18 | -26.06102 | 165.82018 | 39141 ft | 574 kts | 51° |
| 2026-05-06 11:18 | -26.01429 | 165.89243 | 39127 ft | 574 kts | 51° |
| 2026-05-06 11:19 | -25.96769 | 165.96438 | 39134 ft | 574 kts | 51° |
| 2026-05-06 11:19 | -25.92100 | 166.03632 | 39134 ft | 574 kts | 51° |
| 2026-05-06 11:20 | -25.87420 | 166.10834 | 39123 ft | 574 kts | 51° |
| 2026-05-06 11:20 | -25.82741 | 166.18023 | 39136 ft | 574 kts | 51° |
| 2026-05-06 11:21 | -25.78080 | 166.25173 | 39123 ft | 574 kts | 51° |
| 2026-05-06 11:21 | -25.73401 | 166.32341 | 39106 ft | 574 kts | 51° |
| 2026-05-06 11:22 | -25.68704 | 166.39522 | 39110 ft | 575 kts | 51° |
| 2026-05-06 11:22 | -25.64016 | 166.46681 | 39109 ft | 574 kts | 51° |
| 2026-05-06 11:23 | -25.59326 | 166.53834 | 39099 ft | 574 kts | 51° |
| 2026-05-06 11:23 | -25.54629 | 166.60983 | 39111 ft | 574 kts | 51° |
| 2026-05-06 11:24 | -25.49930 | 166.68126 | 39103 ft | 574 kts | 51° |
| 2026-05-06 11:24 | -25.45214 | 166.75283 | 39098 ft | 574 kts | 51° |
| 2026-05-06 11:25 | -25.40499 | 166.82428 | 39107 ft | 574 kts | 51° |
| 2026-05-06 11:25 | -25.35782 | 166.89564 | 39093 ft | 575 kts | 51° |
| 2026-05-06 11:26 | -25.31095 | 166.96646 | 39102 ft | 574 kts | 51° |
| 2026-05-06 11:26 | -25.26376 | 167.03767 | 39096 ft | 574 kts | 51° |
| 2026-05-06 11:27 | -25.21658 | 167.10873 | 39090 ft | 574 kts | 51° |
| 2026-05-06 11:27 | -25.16932 | 167.17980 | 39101 ft | 574 kts | 51° |
| 2026-05-06 11:28 | -25.12204 | 167.25081 | 39087 ft | 574 kts | 51° |
| 2026-05-06 11:28 | -25.07464 | 167.32190 | 39091 ft | 574 kts | 51° |
| 2026-05-06 11:29 | -25.02724 | 167.39288 | 39093 ft | 574 kts | 51° |
| 2026-05-06 11:29 | -24.97994 | 167.46359 | 39080 ft | 573 kts | 51° |
| 2026-05-06 11:30 | -24.93259 | 167.53428 | 39092 ft | 573 kts | 51° |
| 2026-05-06 11:30 | -24.88539 | 167.60463 | 39088 ft | 574 kts | 51° |
| 2026-05-06 11:31 | -24.83795 | 167.67527 | 39079 ft | 573 kts | 51° |
| 2026-05-06 11:31 | -24.79052 | 167.74575 | 39088 ft | 573 kts | 51° |
| 2026-05-06 11:32 | -24.74304 | 167.81621 | 39075 ft | 573 kts | 51° |
| 2026-05-06 11:32 | -24.69567 | 167.88638 | 39082 ft | 572 kts | 51° |
| 2026-05-06 11:33 | -24.64817 | 167.95663 | 39083 ft | 572 kts | 51° |
| 2026-05-06 11:33 | -24.60057 | 168.02695 | 39082 ft | 572 kts | 51° |
| 2026-05-06 11:34 | -24.55301 | 168.09709 | 39089 ft | 572 kts | 51° |
| 2026-05-06 11:34 | -24.50572 | 168.16674 | 39075 ft | 572 kts | 51° |
| 2026-05-06 11:35 | -24.45801 | 168.23692 | 39084 ft | 572 kts | 51° |
| 2026-05-06 11:35 | -24.41032 | 168.30695 | 39080 ft | 572 kts | 51° |
| 2026-05-06 11:36 | -24.36270 | 168.37680 | 39072 ft | 572 kts | 51° |
| 2026-05-06 11:36 | -24.31519 | 168.44637 | 39084 ft | 572 kts | 51° |
| 2026-05-06 11:37 | -24.26740 | 168.51625 | 39072 ft | 572 kts | 51° |
| 2026-05-06 11:37 | -24.21965 | 168.58598 | 39072 ft | 572 kts | 51° |
| 2026-05-06 11:38 | -24.17178 | 168.65579 | 39078 ft | 572 kts | 51° |
| 2026-05-06 11:38 | -24.12384 | 168.72558 | 39065 ft | 573 kts | 51° |
| 2026-05-06 11:39 | -24.07596 | 168.79521 | 39075 ft | 573 kts | 51° |
| 2026-05-06 11:39 | -24.02794 | 168.86494 | 39069 ft | 574 kts | 51° |
| 2026-05-06 11:40 | -23.97990 | 168.93459 | 39065 ft | 572 kts | 51° |
| 2026-05-06 11:40 | -23.93194 | 169.00404 | 39075 ft | 572 kts | 51° |
| 2026-05-06 11:41 | -23.88428 | 169.07296 | 39062 ft | 572 kts | 51° |
| 2026-05-06 11:41 | -23.83594 | 169.14276 | 39062 ft | 572 kts | 51° |
| 2026-05-06 11:42 | -23.78828 | 169.21148 | 39070 ft | 573 kts | 51° |
| 2026-05-06 11:42 | -23.74002 | 169.28098 | 39057 ft | 573 kts | 51° |
| 2026-05-06 11:43 | -23.69179 | 169.35034 | 39062 ft | 573 kts | 51° |
| 2026-05-06 11:43 | -23.64354 | 169.41963 | 39062 ft | 573 kts | 51° |
| 2026-05-06 11:44 | -23.57119 | 169.52335 | 39057 ft | 573 kts | 51° |
| 2026-05-06 11:44 | -23.53098 | 169.58090 | 39063 ft | 573 kts | 51° |
| 2026-05-06 11:45 | -23.48310 | 169.64934 | 39048 ft | 573 kts | 51° |
| 2026-05-06 11:45 | -23.43475 | 169.71837 | 39057 ft | 573 kts | 51° |
| 2026-05-06 11:46 | -23.38629 | 169.78745 | 39053 ft | 574 kts | 51° |
| 2026-05-06 11:46 | -23.33781 | 169.85647 | 39036 ft | 573 kts | 51° |
| 2026-05-06 11:47 | -23.28929 | 169.92546 | 39038 ft | 573 kts | 51° |
| 2026-05-06 11:47 | -23.24107 | 169.99392 | 39042 ft | 574 kts | 51° |
| 2026-05-06 11:48 | -23.19243 | 170.06286 | 39029 ft | 574 kts | 51° |
| 2026-05-06 11:48 | -23.14380 | 170.13173 | 39039 ft | 574 kts | 51° |
| 2026-05-06 11:49 | -23.09512 | 170.20058 | 39031 ft | 574 kts | 51° |
| 2026-05-06 11:49 | -23.04649 | 170.26927 | 39026 ft | 574 kts | 51° |
| 2026-05-06 11:50 | -22.99792 | 170.33777 | 39036 ft | 575 kts | 51° |
| 2026-05-06 11:50 | -22.94918 | 170.40642 | 39022 ft | 575 kts | 51° |
| 2026-05-06 11:51 | -22.90036 | 170.47509 | 39028 ft | 574 kts | 51° |
| 2026-05-06 11:51 | -22.85148 | 170.54376 | 39028 ft | 575 kts | 51° |
| 2026-05-06 11:52 | -22.80260 | 170.61232 | 39020 ft | 575 kts | 51° |
| 2026-05-06 11:52 | -22.75366 | 170.68090 | 39029 ft | 575 kts | 51° |
| 2026-05-06 11:53 | -22.70482 | 170.74923 | 39021 ft | 574 kts | 51° |
| 2026-05-06 11:53 | -22.65583 | 170.81770 | 39015 ft | 574 kts | 51° |
| 2026-05-06 11:54 | -22.60688 | 170.88601 | 39027 ft | 574 kts | 51° |
| 2026-05-06 11:54 | -22.55806 | 170.95405 | 39013 ft | 574 kts | 51° |
| 2026-05-06 11:55 | -22.50897 | 171.02239 | 39020 ft | 574 kts | 51° |
| 2026-05-06 11:55 | -22.45992 | 171.09056 | 39019 ft | 573 kts | 51° |
| 2026-05-06 11:56 | -22.41089 | 171.15864 | 39011 ft | 574 kts | 51° |
| 2026-05-06 11:56 | -22.36184 | 171.22665 | 39025 ft | 574 kts | 51° |
| 2026-05-06 11:57 | -22.31284 | 171.29451 | 39008 ft | 573 kts | 51° |
| 2026-05-06 11:57 | -22.26378 | 171.36236 | 39018 ft | 573 kts | 51° |
| 2026-05-06 11:58 | -22.21481 | 171.43000 | 39014 ft | 572 kts | 51° |
| 2026-05-06 11:58 | -22.16572 | 171.49772 | 39009 ft | 572 kts | 51° |
| 2026-05-06 11:59 | -22.11668 | 171.56527 | 39020 ft | 571 kts | 51° |
| 2026-05-06 11:59 | -22.06942 | 171.63028 | 39003 ft | 571 kts | 51° |
| 2026-05-06 12:00 | -22.01942 | 171.69898 | 38994 ft | 571 kts | 51° |
| 2026-05-06 12:00 | -21.97064 | 171.76591 | 39006 ft | 571 kts | 51° |
| 2026-05-06 12:01 | -21.92153 | 171.83320 | 38993 ft | 570 kts | 51° |
| 2026-05-06 12:01 | -21.87239 | 171.90045 | 39003 ft | 570 kts | 51° |
| 2026-05-06 12:02 | -21.82326 | 171.96759 | 38999 ft | 571 kts | 51° |
| 2026-05-06 12:02 | -21.77521 | 172.03319 | 38994 ft | 570 kts | 51° |
| 2026-05-06 12:03 | -21.72508 | 172.10154 | 39007 ft | 571 kts | 51° |
| 2026-05-06 12:03 | -21.67608 | 172.16826 | 38992 ft | 571 kts | 51° |
| 2026-05-06 12:04 | -21.62643 | 172.23579 | 39000 ft | 571 kts | 51° |
| 2026-05-06 12:04 | -21.57753 | 172.30221 | 39003 ft | 571 kts | 51° |
| 2026-05-06 12:05 | -21.52837 | 172.36891 | 38990 ft | 571 kts | 51° |
| 2026-05-06 12:05 | -21.47882 | 172.43605 | 39003 ft | 571 kts | 51° |
| 2026-05-06 12:06 | -21.42944 | 172.50289 | 38996 ft | 571 kts | 51° |
| 2026-05-06 12:06 | -21.38088 | 172.56853 | 38993 ft | 571 kts | 51° |
| 2026-05-06 12:07 | -21.33075 | 172.63622 | 39002 ft | 571 kts | 51° |
| 2026-05-06 12:07 | -21.28175 | 172.70231 | 38988 ft | 571 kts | 51° |
| 2026-05-06 12:08 | -21.23203 | 172.76928 | 39001 ft | 571 kts | 51° |
| 2026-05-06 12:08 | -21.18267 | 172.83569 | 38992 ft | 570 kts | 51° |
| 2026-05-06 12:09 | -21.13309 | 172.90231 | 38991 ft | 570 kts | 51° |
| 2026-05-06 12:09 | -21.08363 | 172.96869 | 39003 ft | 570 kts | 51° |
| 2026-05-06 12:10 | -21.03469 | 173.03430 | 38987 ft | 570 kts | 51° |
| 2026-05-06 12:10 | -20.98527 | 173.10046 | 39000 ft | 569 kts | 51° |
| 2026-05-06 12:11 | -20.93570 | 173.16677 | 38988 ft | 569 kts | 51° |
| 2026-05-06 12:11 | -20.88621 | 173.23287 | 38993 ft | 569 kts | 51° |
| 2026-05-06 12:12 | -20.83650 | 173.29920 | 38993 ft | 568 kts | 51° |
| 2026-05-06 12:12 | -20.78703 | 173.36512 | 38984 ft | 568 kts | 51° |
| 2026-05-06 12:13 | -20.73771 | 173.43078 | 38995 ft | 567 kts | 51° |
| 2026-05-06 12:13 | -20.68819 | 173.49662 | 38988 ft | 567 kts | 51° |
| 2026-05-06 12:14 | -20.63883 | 173.56218 | 38983 ft | 567 kts | 51° |
| 2026-05-06 12:14 | -20.58943 | 173.62771 | 38992 ft | 566 kts | 51° |
| 2026-05-06 12:15 | -20.53999 | 173.69322 | 38984 ft | 565 kts | 51° |
| 2026-05-06 12:15 | -20.49066 | 173.75851 | 38991 ft | 565 kts | 51° |
| 2026-05-06 12:16 | -20.44166 | 173.82327 | 38983 ft | 564 kts | 51° |
| 2026-05-06 12:16 | -20.39262 | 173.88810 | 38995 ft | 563 kts | 51° |
| 2026-05-06 12:17 | -20.34429 | 173.95184 | 39005 ft | 563 kts | 51° |
| 2026-05-06 12:17 | -20.29442 | 174.01751 | 38996 ft | 563 kts | 51° |
| 2026-05-06 12:18 | -20.24723 | 174.07960 | 38983 ft | 562 kts | 51° |
| 2026-05-06 12:18 | -20.19794 | 174.14440 | 38995 ft | 562 kts | 51° |
| 2026-05-06 12:19 | -20.14863 | 174.20916 | 38988 ft | 562 kts | 51° |
| 2026-05-06 12:19 | -20.09938 | 174.27377 | 38983 ft | 562 kts | 51° |
| 2026-05-06 12:20 | -20.05037 | 174.33798 | 38994 ft | 562 kts | 51° |
| 2026-05-06 12:20 | -20.00107 | 174.40252 | 38980 ft | 562 kts | 51° |
| 2026-05-06 12:21 | -19.95185 | 174.46687 | 38980 ft | 560 kts | 51° |
| 2026-05-06 12:21 | -19.90263 | 174.53116 | 38990 ft | 559 kts | 50° |
| 2026-05-06 12:22 | -19.85350 | 174.59524 | 38976 ft | 559 kts | 50° |
| 2026-05-06 12:22 | -19.80437 | 174.65927 | 38984 ft | 558 kts | 50° |
| 2026-05-06 12:23 | -19.75527 | 174.72319 | 38976 ft | 557 kts | 50° |
| 2026-05-06 12:23 | -19.70660 | 174.78647 | 38970 ft | 556 kts | 50° |
| 2026-05-06 12:24 | -19.65767 | 174.85003 | 38980 ft | 556 kts | 50° |
| 2026-05-06 12:24 | -19.60878 | 174.91346 | 38967 ft | 555 kts | 50° |
| 2026-05-06 12:25 | -19.55996 | 174.97675 | 38974 ft | 554 kts | 50° |
| 2026-05-06 12:25 | -19.51144 | 175.03957 | 38971 ft | 554 kts | 50° |
| 2026-05-06 12:26 | -19.46242 | 175.10298 | 38955 ft | 553 kts | 50° |
| 2026-05-06 12:26 | -19.41364 | 175.16602 | 38968 ft | 552 kts | 50° |
| 2026-05-06 12:27 | -19.36498 | 175.22882 | 38958 ft | 552 kts | 50° |
| 2026-05-06 12:27 | -19.31617 | 175.29176 | 38956 ft | 552 kts | 50° |
| 2026-05-06 12:28 | -19.26746 | 175.35447 | 38963 ft | 551 kts | 50° |
| 2026-05-06 12:28 | -19.21872 | 175.41716 | 38948 ft | 551 kts | 50° |
| 2026-05-06 12:29 | -19.17042 | 175.47923 | 38944 ft | 550 kts | 50° |
| 2026-05-06 12:29 | -19.12166 | 175.54180 | 38955 ft | 550 kts | 50° |
| 2026-05-06 12:30 | -19.07295 | 175.60425 | 38942 ft | 550 kts | 50° |
| 2026-05-06 12:30 | -19.02427 | 175.66660 | 38947 ft | 549 kts | 50° |
| 2026-05-06 12:31 | -18.98372 | 175.71848 | 38951 ft | 549 kts | 50° |
| 2026-05-06 12:31 | -18.93503 | 175.78073 | 38937 ft | 549 kts | 50° |
| 2026-05-06 12:32 | -18.88637 | 175.84288 | 38947 ft | 549 kts | 50° |
| 2026-05-06 12:32 | -18.83771 | 175.90496 | 38942 ft | 548 kts | 50° |
| 2026-05-06 12:33 | -18.78909 | 175.96692 | 38937 ft | 548 kts | 50° |
| 2026-05-06 12:33 | -18.74069 | 176.02856 | 38951 ft | 546 kts | 50° |
| 2026-05-06 12:34 | -18.69195 | 176.09055 | 38934 ft | 546 kts | 50° |
| 2026-05-06 12:34 | -18.64361 | 176.15197 | 38945 ft | 546 kts | 50° |
| 2026-05-06 12:35 | -18.59501 | 176.21367 | 38938 ft | 547 kts | 50° |
| 2026-05-06 12:35 | -18.54644 | 176.27527 | 38934 ft | 546 kts | 50° |
| 2026-05-06 12:36 | -18.49783 | 176.33687 | 38945 ft | 547 kts | 50° |
| 2026-05-06 12:36 | -18.44919 | 176.39843 | 38932 ft | 546 kts | 50° |
| 2026-05-06 12:37 | -18.40051 | 176.46000 | 38939 ft | 546 kts | 50° |
| 2026-05-06 12:37 | -18.35189 | 176.52142 | 38940 ft | 547 kts | 50° |
| 2026-05-06 12:38 | -18.30321 | 176.58285 | 38929 ft | 546 kts | 50° |
| 2026-05-06 12:38 | -18.25470 | 176.64401 | 38942 ft | 547 kts | 50° |
| 2026-05-06 12:39 | -18.20595 | 176.70542 | 38932 ft | 547 kts | 50° |
| 2026-05-06 12:39 | -18.15713 | 176.76687 | 38933 ft | 546 kts | 50° |
| 2026-05-06 12:40 | -18.10831 | 176.82824 | 38941 ft | 547 kts | 50° |
| 2026-05-06 12:40 | -18.05956 | 176.88948 | 38928 ft | 546 kts | 50° |
| 2026-05-06 12:41 | -18.01097 | 176.95044 | 38939 ft | 546 kts | 50° |
| 2026-05-06 12:41 | -17.96226 | 177.01152 | 38934 ft | 542 kts | 49° |
| 2026-05-06 12:42 | -17.91377 | 177.07225 | 38934 ft | 543 kts | 49° |
| 2026-05-06 12:42 | -17.86518 | 177.13304 | 38938 ft | 543 kts | 49° |
| 2026-05-06 12:43 | -17.81664 | 177.19373 | 38927 ft | 543 kts | 49° |
| 2026-05-06 12:43 | -17.76808 | 177.25439 | 38940 ft | 543 kts | 49° |
| 2026-05-06 12:44 | -17.71939 | 177.31514 | 38931 ft | 543 kts | 49° |
| 2026-05-06 12:44 | -17.67116 | 177.37536 | 38932 ft | 543 kts | 49° |
| 2026-05-06 12:45 | -17.62246 | 177.43659 | 38940 ft | 543 kts | 49° |
| 2026-05-06 12:46 | -17.55040 | 177.52753 | 38930 ft | 543 kts | 50° |
| 2026-05-06 12:46 | -17.50215 | 177.58840 | 38941 ft | 543 kts | 50° |
| 2026-05-06 12:47 | -17.45389 | 177.64925 | 38927 ft | 543 kts | 49° |
| 2026-05-06 12:47 | -17.40568 | 177.70997 | 38939 ft | 542 kts | 49° |
| 2026-05-06 12:48 | -17.35737 | 177.77074 | 38933 ft | 542 kts | 49° |
| 2026-05-06 12:48 | -17.31056 | 177.82958 | 38929 ft | 541 kts | 49° |
| 2026-05-06 12:49 | -17.26232 | 177.89017 | 38942 ft | 542 kts | 49° |
| 2026-05-06 12:49 | -17.21408 | 177.95070 | 38928 ft | 540 kts | 49° |
| 2026-05-06 12:50 | -17.16595 | 178.01106 | 38935 ft | 540 kts | 49° |
| 2026-05-06 12:50 | -17.11797 | 178.07119 | 38934 ft | 538 kts | 49° |
| 2026-05-06 12:51 | -17.07002 | 178.13121 | 38927 ft | 538 kts | 49° |
| 2026-05-06 12:51 | -17.02198 | 178.19126 | 38941 ft | 537 kts | 48° |
| 2026-05-06 12:52 | -16.97416 | 178.25101 | 38928 ft | 536 kts | 48° |
| 2026-05-06 12:52 | -16.92624 | 178.31082 | 38936 ft | 536 kts | 48° |
| 2026-05-06 12:53 | -16.87838 | 178.37053 | 38935 ft | 536 kts | 48° |
| 2026-05-06 12:53 | -16.83052 | 178.43016 | 38928 ft | 536 kts | 48° |
| 2026-05-06 12:54 | -16.78266 | 178.48974 | 38941 ft | 535 kts | 48° |
| 2026-05-06 12:54 | -16.73482 | 178.54932 | 38926 ft | 535 kts | 48° |
| 2026-05-06 12:55 | -16.68730 | 178.60837 | 38944 ft | 535 kts | 48° |
| 2026-05-06 12:55 | -16.63949 | 178.66769 | 38925 ft | 534 kts | 48° |
| 2026-05-06 12:56 | -16.59162 | 178.72696 | 38937 ft | 534 kts | 47° |
| 2026-05-06 12:56 | -16.54359 | 178.78614 | 38930 ft | 534 kts | 47° |
| 2026-05-06 12:57 | -16.49559 | 178.84512 | 38928 ft | 533 kts | 47° |
| 2026-05-06 12:57 | -16.44763 | 178.90394 | 38938 ft | 533 kts | 47° |
| 2026-05-06 12:58 | -16.39963 | 178.96277 | 38924 ft | 532 kts | 47° |
| 2026-05-06 12:58 | -16.35181 | 179.02133 | 38934 ft | 533 kts | 47° |
| 2026-05-06 12:59 | -16.30383 | 179.08004 | 38930 ft | 532 kts | 47° |
| 2026-05-06 12:59 | -16.25587 | 179.13867 | 38925 ft | 532 kts | 47° |
| 2026-05-06 13:00 | -16.20780 | 179.19740 | 38938 ft | 532 kts | 46° |
| 2026-05-06 13:00 | -16.15983 | 179.25595 | 38923 ft | 531 kts | 46° |
| 2026-05-06 13:01 | -16.11178 | 179.31454 | 38932 ft | 532 kts | 46° |
| 2026-05-06 13:01 | -16.06412 | 179.37262 | 38930 ft | 531 kts | 46° |
| 2026-05-06 13:02 | -16.01616 | 179.43102 | 38922 ft | 530 kts | 46° |
| 2026-05-06 13:02 | -15.96824 | 179.48932 | 38937 ft | 529 kts | 46° |
| 2026-05-06 13:03 | -15.92117 | 179.54654 | 38922 ft | 530 kts | 46° |
| 2026-05-06 13:03 | -15.87324 | 179.60475 | 38930 ft | 530 kts | 46° |
| 2026-05-06 13:04 | -15.82534 | 179.66289 | 38927 ft | 529 kts | 46° |
| 2026-05-06 13:04 | -15.77748 | 179.72092 | 38920 ft | 529 kts | 46° |
| 2026-05-06 13:05 | -15.73014 | 179.77829 | 38933 ft | 529 kts | 46° |
| 2026-05-06 13:05 | -15.68181 | 179.83680 | 38920 ft | 529 kts | 46° |
| 2026-05-06 13:06 | -15.63386 | 179.89482 | 38929 ft | 529 kts | 46° |
| 2026-05-06 13:06 | -15.58594 | 179.95274 | 38930 ft | 529 kts | 46° |
| 2026-05-06 13:07 | -15.53839 | -179.98981 | 38918 ft | 529 kts | 46° |
| 2026-05-06 13:07 | -15.49002 | -179.93142 | 38890 ft | 529 kts | 46° |
| 2026-05-06 13:08 | -15.44233 | -179.87391 | 38870 ft | 529 kts | 46° |
| 2026-05-06 13:08 | -15.39417 | -179.81588 | 38861 ft | 529 kts | 46° |
| 2026-05-06 13:09 | -15.34611 | -179.75799 | 38873 ft | 529 kts | 46° |
| 2026-05-06 13:09 | -15.30061 | -179.70322 | 38865 ft | 528 kts | 46° |
| 2026-05-06 13:10 | -15.25272 | -179.64550 | 38868 ft | 528 kts | 46° |
| 2026-05-06 13:10 | -15.20484 | -179.58777 | 38873 ft | 528 kts | 46° |
| 2026-05-06 13:11 | -15.15680 | -179.52988 | 38861 ft | 528 kts | 46° |
| 2026-05-06 13:11 | -15.10921 | -179.47258 | 38874 ft | 527 kts | 46° |
| 2026-05-06 13:12 | -15.06135 | -179.41500 | 38868 ft | 527 kts | 46° |
| 2026-05-06 13:12 | -15.01344 | -179.35739 | 38865 ft | 527 kts | 46° |
| 2026-05-06 13:13 | -14.96561 | -179.29994 | 38876 ft | 527 kts | 46° |
| 2026-05-06 13:13 | -14.91806 | -179.24286 | 38863 ft | 527 kts | 46° |
| 2026-05-06 13:14 | -14.87028 | -179.18555 | 38871 ft | 526 kts | 46° |
| 2026-05-06 13:14 | -14.82241 | -179.12817 | 38873 ft | 527 kts | 46° |
| 2026-05-06 13:15 | -14.77454 | -179.07083 | 38863 ft | 526 kts | 46° |
| 2026-05-06 13:15 | -14.72671 | -179.01358 | 38876 ft | 526 kts | 46° |
| 2026-05-06 13:16 | -14.67891 | -178.95642 | 38868 ft | 525 kts | 46° |
| 2026-05-06 13:16 | -14.63113 | -178.89930 | 38868 ft | 525 kts | 46° |
| 2026-05-06 13:17 | -14.58340 | -178.84231 | 38877 ft | 525 kts | 46° |
| 2026-05-06 13:17 | -14.53589 | -178.78561 | 38865 ft | 524 kts | 46° |
| 2026-05-06 13:18 | -14.48827 | -178.72882 | 38873 ft | 523 kts | 46° |
| 2026-05-06 13:18 | -14.44052 | -178.67191 | 38874 ft | 523 kts | 46° |
| 2026-05-06 13:19 | -14.39294 | -178.61526 | 38866 ft | 522 kts | 46° |
| 2026-05-06 13:19 | -14.34534 | -178.55862 | 38878 ft | 522 kts | 46° |
| 2026-05-06 13:20 | -14.30580 | -178.51159 | 38871 ft | 521 kts | 46° |
| 2026-05-06 13:20 | -14.25835 | -178.45520 | 38868 ft | 521 kts | 46° |
| 2026-05-06 13:21 | -14.20312 | -178.38961 | 38877 ft | 520 kts | 46° |
| 2026-05-06 13:21 | -14.16337 | -178.34244 | 38866 ft | 520 kts | 46° |
| 2026-05-06 13:22 | -14.11596 | -178.28621 | 38875 ft | 520 kts | 46° |
| 2026-05-06 13:22 | -14.06853 | -178.23000 | 38874 ft | 519 kts | 46° |
| 2026-05-06 13:23 | -14.02106 | -178.17378 | 38866 ft | 519 kts | 46° |
| 2026-05-06 13:23 | -13.97406 | -178.11815 | 38879 ft | 519 kts | 45° |
| 2026-05-06 13:24 | -13.92662 | -178.06204 | 38868 ft | 519 kts | 46° |
| 2026-05-06 13:24 | -13.87914 | -178.00593 | 38874 ft | 519 kts | 45° |
| 2026-05-06 13:25 | -13.83176 | -177.94997 | 38879 ft | 519 kts | 45° |
| 2026-05-06 13:25 | -13.78432 | -177.89397 | 38868 ft | 519 kts | 45° |
| 2026-05-06 13:26 | -13.73686 | -177.83799 | 38880 ft | 519 kts | 45° |
| 2026-05-06 13:26 | -13.68929 | -177.78193 | 38874 ft | 520 kts | 45° |
| 2026-05-06 13:27 | -13.64168 | -177.72584 | 38871 ft | 520 kts | 46° |
| 2026-05-06 13:27 | -13.59393 | -177.66963 | 38882 ft | 522 kts | 45° |
| 2026-05-06 13:28 | -13.54643 | -177.61375 | 38869 ft | 522 kts | 46° |
| 2026-05-06 13:28 | -13.49832 | -177.55720 | 38877 ft | 523 kts | 46° |
| 2026-05-06 13:29 | -13.45072 | -177.50128 | 38877 ft | 524 kts | 46° |
| 2026-05-06 13:29 | -13.40270 | -177.44490 | 38868 ft | 524 kts | 46° |
| 2026-05-06 13:30 | -13.35459 | -177.38845 | 38882 ft | 525 kts | 46° |
| 2026-05-06 13:30 | -13.30648 | -177.33204 | 38870 ft | 526 kts | 46° |
| 2026-05-06 13:31 | -13.25820 | -177.27547 | 38875 ft | 526 kts | 46° |
| 2026-05-06 13:31 | -13.21016 | -177.21922 | 38880 ft | 527 kts | 46° |
| 2026-05-06 13:32 | -13.16178 | -177.16261 | 38869 ft | 528 kts | 46° |
| 2026-05-06 13:32 | -13.11336 | -177.10598 | 38881 ft | 528 kts | 46° |
| 2026-05-06 13:33 | -13.06479 | -177.04922 | 38872 ft | 529 kts | 46° |
| 2026-05-06 13:33 | -13.01616 | -176.99245 | 38872 ft | 529 kts | 46° |
| 2026-05-06 13:34 | -12.96760 | -176.93584 | 38882 ft | 529 kts | 46° |
| 2026-05-06 13:34 | -12.91890 | -176.87912 | 38868 ft | 530 kts | 46° |
| 2026-05-06 13:35 | -12.87016 | -176.82243 | 38879 ft | 530 kts | 46° |
| 2026-05-06 13:35 | -12.82139 | -176.76570 | 38876 ft | 530 kts | 46° |
| 2026-05-06 13:36 | -12.77287 | -176.70927 | 38869 ft | 531 kts | 46° |
| 2026-05-06 13:36 | -12.72391 | -176.65239 | 38883 ft | 532 kts | 46° |
| 2026-05-06 13:37 | -12.67492 | -176.59552 | 38870 ft | 532 kts | 46° |
| 2026-05-06 13:37 | -12.62592 | -176.53867 | 38875 ft | 533 kts | 46° |
| 2026-05-06 13:38 | -12.57691 | -176.48186 | 38878 ft | 533 kts | 46° |
| 2026-05-06 13:38 | -12.52774 | -176.42487 | 38868 ft | 534 kts | 46° |
| 2026-05-06 13:39 | -12.47855 | -176.36791 | 38882 ft | 535 kts | 46° |
| 2026-05-06 13:39 | -12.42927 | -176.31090 | 38870 ft | 535 kts | 46° |
| 2026-05-06 13:40 | -12.37984 | -176.25373 | 38875 ft | 535 kts | 46° |
| 2026-05-06 13:40 | -12.33087 | -176.19714 | 38880 ft | 536 kts | 46° |
| 2026-05-06 13:41 | -12.28134 | -176.13990 | 38868 ft | 536 kts | 46° |
| 2026-05-06 13:41 | -12.23203 | -176.08295 | 38879 ft | 536 kts | 46° |
| 2026-05-06 13:42 | -12.18246 | -176.02578 | 38873 ft | 537 kts | 46° |
| 2026-05-06 13:42 | -12.13285 | -175.96858 | 38871 ft | 537 kts | 46° |
| 2026-05-06 13:43 | -12.08334 | -175.91151 | 38882 ft | 537 kts | 46° |
| 2026-05-06 13:43 | -12.03377 | -175.85443 | 38868 ft | 537 kts | 46° |
| 2026-05-06 13:44 | -11.98419 | -175.79737 | 38877 ft | 537 kts | 46° |
| 2026-05-06 13:44 | -11.93462 | -175.74035 | 38877 ft | 537 kts | 46° |
| 2026-05-06 13:45 | -11.88506 | -175.68339 | 38868 ft | 536 kts | 46° |
| 2026-05-06 13:45 | -11.81111 | -175.59844 | 38879 ft | 535 kts | 46° |
| 2026-05-06 13:46 | -11.76169 | -175.54169 | 38867 ft | 535 kts | 46° |
| 2026-05-06 13:46 | -11.71226 | -175.48499 | 38882 ft | 533 kts | 46° |
| 2026-05-06 13:47 | -11.66276 | -175.42824 | 38871 ft | 534 kts | 46° |
| 2026-05-06 13:47 | -11.61343 | -175.37171 | 38873 ft | 533 kts | 45° |
| 2026-05-06 13:48 | -11.56415 | -175.31530 | 38879 ft | 532 kts | 45° |
| 2026-05-06 13:48 | -11.51528 | -175.25936 | 38868 ft | 531 kts | 45° |
| 2026-05-06 13:49 | -11.46606 | -175.20304 | 38880 ft | 531 kts | 45° |
| 2026-05-06 13:49 | -11.41686 | -175.14680 | 38872 ft | 530 kts | 45° |
| 2026-05-06 13:50 | -11.36778 | -175.09071 | 38872 ft | 530 kts | 45° |
| 2026-05-06 13:50 | -11.31868 | -175.03464 | 38882 ft | 529 kts | 45° |
| 2026-05-06 13:51 | -11.26970 | -174.97874 | 38868 ft | 529 kts | 45° |
| 2026-05-06 13:51 | -11.22095 | -174.92314 | 38878 ft | 529 kts | 45° |
| 2026-05-06 13:52 | -11.17198 | -174.86731 | 38875 ft | 528 kts | 45° |
| 2026-05-06 13:52 | -11.12298 | -174.81147 | 38869 ft | 527 kts | 45° |
| 2026-05-06 13:53 | -11.07404 | -174.75574 | 38879 ft | 528 kts | 45° |
| 2026-05-06 13:53 | -11.02500 | -174.69995 | 38870 ft | 528 kts | 45° |
| 2026-05-06 13:54 | -10.97608 | -174.64429 | 38877 ft | 528 kts | 45° |
| 2026-05-06 13:54 | -10.92706 | -174.58855 | 38881 ft | 528 kts | 45° |
| 2026-05-06 13:55 | -10.87816 | -174.53297 | 38869 ft | 527 kts | 45° |
| 2026-05-06 13:55 | -10.82920 | -174.47736 | 38882 ft | 527 kts | 45° |
| 2026-05-06 13:56 | -10.78024 | -174.42179 | 38873 ft | 528 kts | 45° |
| 2026-05-06 13:56 | -10.73126 | -174.36621 | 38874 ft | 528 kts | 45° |
| 2026-05-06 13:57 | -10.68218 | -174.31056 | 38883 ft | 527 kts | 45° |
| 2026-05-06 13:57 | -10.63347 | -174.25535 | 38870 ft | 528 kts | 45° |
| 2026-05-06 13:58 | -10.58446 | -174.19984 | 38881 ft | 528 kts | 45° |
| 2026-05-06 13:58 | -10.53538 | -174.14427 | 38877 ft | 527 kts | 45° |
| 2026-05-06 13:59 | -10.48630 | -174.08872 | 38873 ft | 528 kts | 45° |
| 2026-05-06 13:59 | -10.43719 | -174.03319 | 38883 ft | 528 kts | 44° |
| 2026-05-06 14:00 | -10.38854 | -173.97819 | 38872 ft | 527 kts | 44° |
| 2026-05-06 14:00 | -10.33914 | -173.92237 | 38877 ft | 527 kts | 44° |
| 2026-05-06 14:01 | -10.29000 | -173.86688 | 38881 ft | 528 kts | 44° |
| 2026-05-06 14:01 | -10.24081 | -173.81136 | 38869 ft | 528 kts | 44° |
| 2026-05-06 14:02 | -10.19165 | -173.75590 | 38882 ft | 528 kts | 44° |
| 2026-05-06 14:02 | -10.14285 | -173.70087 | 38875 ft | 528 kts | 44° |
| 2026-05-06 14:03 | -10.09374 | -173.64552 | 38873 ft | 527 kts | 44° |
| 2026-05-06 14:03 | -10.04463 | -173.59020 | 38883 ft | 527 kts | 44° |
| 2026-05-06 14:04 | -9.99558 | -173.53498 | 38870 ft | 527 kts | 44° |
| 2026-05-06 14:04 | -9.94651 | -173.47974 | 38880 ft | 527 kts | 44° |
| 2026-05-06 14:05 | -9.90568 | -173.43380 | 38881 ft | 526 kts | 44° |
| 2026-05-06 14:05 | -9.84865 | -173.36969 | 38872 ft | 526 kts | 44° |
| 2026-05-06 14:06 | -9.79973 | -173.31472 | 38884 ft | 525 kts | 44° |
| 2026-05-06 14:06 | -9.75899 | -173.26895 | 38875 ft | 525 kts | 44° |
| 2026-05-06 14:07 | -9.70982 | -173.21373 | 38874 ft | 524 kts | 44° |
| 2026-05-06 14:07 | -9.66124 | -173.15923 | 38884 ft | 524 kts | 44° |
| 2026-05-06 14:08 | -9.61244 | -173.10448 | 38870 ft | 523 kts | 44° |
| 2026-05-06 14:08 | -9.56366 | -173.04979 | 38880 ft | 523 kts | 44° |
| 2026-05-06 14:09 | -9.51477 | -172.99500 | 38878 ft | 523 kts | 44° |
| 2026-05-06 14:09 | -9.46599 | -172.94035 | 38873 ft | 522 kts | 44° |
| 2026-05-06 14:10 | -9.41726 | -172.88575 | 38885 ft | 522 kts | 44° |
| 2026-05-06 14:10 | -9.36862 | -172.83124 | 38874 ft | 521 kts | 44° |
| 2026-05-06 14:11 | -9.31991 | -172.77670 | 38877 ft | 521 kts | 44° |
| 2026-05-06 14:11 | -9.27156 | -172.72257 | 38880 ft | 522 kts | 44° |
| 2026-05-06 14:12 | -9.22293 | -172.66816 | 38868 ft | 520 kts | 44° |
| 2026-05-06 14:12 | -9.17432 | -172.61383 | 38881 ft | 521 kts | 44° |
| 2026-05-06 14:13 | -9.12564 | -172.55945 | 38878 ft | 521 kts | 44° |
| 2026-05-06 14:13 | -9.07707 | -172.50513 | 38869 ft | 520 kts | 44° |
| 2026-05-06 14:14 | -9.02853 | -172.45091 | 38883 ft | 520 kts | 44° |
| 2026-05-06 14:14 | -8.97995 | -172.39667 | 38873 ft | 519 kts | 44° |
| 2026-05-06 14:15 | -8.93149 | -172.34259 | 38874 ft | 519 kts | 44° |
| 2026-05-06 14:15 | -8.88288 | -172.28839 | 38880 ft | 519 kts | 44° |
| 2026-05-06 14:16 | -8.83437 | -172.23433 | 38869 ft | 519 kts | 44° |
| 2026-05-06 14:16 | -8.78589 | -172.18027 | 38877 ft | 519 kts | 44° |
| 2026-05-06 14:17 | -8.73736 | -172.12619 | 38877 ft | 518 kts | 43° |
| 2026-05-06 14:17 | -8.68925 | -172.07261 | 38869 ft | 518 kts | 43° |
| 2026-05-06 14:18 | -8.64074 | -172.01864 | 38883 ft | 518 kts | 43° |
| 2026-05-06 14:18 | -8.59240 | -171.96483 | 38868 ft | 517 kts | 43° |
| 2026-05-06 14:19 | -8.54396 | -171.91095 | 38864 ft | 517 kts | 43° |
| 2026-05-06 14:19 | -8.49551 | -171.85709 | 38875 ft | 517 kts | 43° |
| 2026-05-06 14:20 | -8.44714 | -171.80334 | 38862 ft | 517 kts | 43° |
| 2026-05-06 14:20 | -8.39874 | -171.74957 | 38870 ft | 517 kts | 43° |
| 2026-05-06 14:21 | -8.35033 | -171.69582 | 38870 ft | 517 kts | 43° |
| 2026-05-06 14:21 | -8.30221 | -171.64240 | 38861 ft | 517 kts | 43° |
| 2026-05-06 14:22 | -8.25377 | -171.58869 | 38876 ft | 517 kts | 43° |
| 2026-05-06 14:22 | -8.20538 | -171.53501 | 38864 ft | 517 kts | 43° |
| 2026-05-06 14:23 | -8.15696 | -171.48131 | 38866 ft | 517 kts | 43° |
| 2026-05-06 14:23 | -8.10846 | -171.42756 | 38873 ft | 517 kts | 43° |
| 2026-05-06 14:24 | -8.06011 | -171.37400 | 38856 ft | 517 kts | 43° |
| 2026-05-06 14:24 | -8.01164 | -171.32033 | 38862 ft | 516 kts | 43° |
| 2026-05-06 14:25 | -7.96329 | -171.26681 | 38864 ft | 515 kts | 44° |
| 2026-05-06 14:25 | -7.91500 | -171.21338 | 38855 ft | 516 kts | 44° |
| 2026-05-06 14:26 | -7.86659 | -171.15983 | 38865 ft | 516 kts | 44° |
| 2026-05-06 14:26 | -7.81851 | -171.10666 | 38853 ft | 515 kts | 44° |
| 2026-05-06 14:27 | -7.77014 | -171.05319 | 38864 ft | 515 kts | 44° |
| 2026-05-06 14:27 | -7.72205 | -171.00007 | 38862 ft | 515 kts | 44° |
| 2026-05-06 14:28 | -7.67348 | -170.94642 | 38853 ft | 515 kts | 44° |
| 2026-05-06 14:28 | -7.62519 | -170.89310 | 38867 ft | 515 kts | 44° |
| 2026-05-06 14:29 | -7.57676 | -170.83965 | 38854 ft | 515 kts | 44° |
| 2026-05-06 14:29 | -7.52854 | -170.78646 | 38857 ft | 514 kts | 44° |
| 2026-05-06 14:30 | -7.48015 | -170.73310 | 38864 ft | 515 kts | 44° |
| 2026-05-06 14:30 | -7.43214 | -170.68016 | 38852 ft | 515 kts | 44° |
| 2026-05-06 14:31 | -7.38381 | -170.62692 | 38865 ft | 515 kts | 44° |
| 2026-05-06 14:31 | -7.33513 | -170.57327 | 38855 ft | 515 kts | 44° |
| 2026-05-06 14:32 | -7.28688 | -170.52011 | 38857 ft | 515 kts | 44° |
| 2026-05-06 14:32 | -7.23889 | -170.46727 | 38865 ft | 515 kts | 44° |
| 2026-05-06 14:33 | -7.19039 | -170.41390 | 38852 ft | 515 kts | 44° |
| 2026-05-06 14:33 | -7.14206 | -170.36075 | 38865 ft | 514 kts | 44° |
| 2026-05-06 14:34 | -7.09369 | -170.30755 | 38855 ft | 514 kts | 44° |
| 2026-05-06 14:34 | -7.04566 | -170.25472 | 38855 ft | 514 kts | 44° |
| 2026-05-06 14:35 | -6.99707 | -170.20130 | 38862 ft | 514 kts | 44° |
| 2026-05-06 14:35 | -6.94908 | -170.14857 | 38850 ft | 513 kts | 44° |
| 2026-05-06 14:36 | -6.90080 | -170.09555 | 38862 ft | 513 kts | 44° |
| 2026-05-06 14:36 | -6.85251 | -170.04252 | 38856 ft | 513 kts | 44° |
| 2026-05-06 14:37 | -6.80430 | -169.98960 | 38853 ft | 513 kts | 44° |
| 2026-05-06 14:37 | -6.75609 | -169.93669 | 38863 ft | 512 kts | 44° |
| 2026-05-06 14:38 | -6.70824 | -169.88422 | 38848 ft | 511 kts | 44° |
| 2026-05-06 14:38 | -6.66008 | -169.83142 | 38860 ft | 512 kts | 44° |
| 2026-05-06 14:39 | -6.61198 | -169.77873 | 38859 ft | 512 kts | 44° |
| 2026-05-06 14:39 | -6.56379 | -169.72591 | 38849 ft | 511 kts | 44° |
| 2026-05-06 14:40 | -6.51566 | -169.67315 | 38863 ft | 512 kts | 44° |
| 2026-05-06 14:40 | -6.46758 | -169.62045 | 38851 ft | 512 kts | 44° |
| 2026-05-06 14:41 | -6.41939 | -169.56768 | 38856 ft | 511 kts | 44° |
| 2026-05-06 14:41 | -6.37126 | -169.51500 | 38860 ft | 512 kts | 44° |
| 2026-05-06 14:42 | -6.32298 | -169.46220 | 38850 ft | 511 kts | 44° |
| 2026-05-06 14:42 | -6.27520 | -169.40991 | 38862 ft | 512 kts | 44° |
| 2026-05-06 14:43 | -6.22706 | -169.35724 | 38850 ft | 511 kts | 44° |
| 2026-05-06 14:43 | -6.17892 | -169.30461 | 38855 ft | 511 kts | 44° |
| 2026-05-06 14:44 | -6.13083 | -169.25205 | 38859 ft | 511 kts | 44° |
| 2026-05-06 14:45 | -6.05865 | -169.17324 | 38858 ft | 511 kts | 44° |
| 2026-05-06 14:45 | -6.01059 | -169.12071 | 38856 ft | 510 kts | 44° |
| 2026-05-06 14:46 | -5.96263 | -169.06833 | 38849 ft | 509 kts | 45° |
| 2026-05-06 14:46 | -5.91453 | -169.01582 | 38861 ft | 509 kts | 44° |
| 2026-05-06 14:47 | -5.86691 | -168.96384 | 38850 ft | 509 kts | 44° |
| 2026-05-06 14:47 | -5.81893 | -168.91149 | 38856 ft | 509 kts | 44° |
| 2026-05-06 14:48 | -5.77090 | -168.85911 | 38857 ft | 508 kts | 44° |
| 2026-05-06 14:48 | -5.72297 | -168.80690 | 38849 ft | 509 kts | 44° |
| 2026-05-06 14:49 | -5.67503 | -168.75461 | 38860 ft | 509 kts | 44° |
| 2026-05-06 14:49 | -5.62713 | -168.70238 | 38848 ft | 508 kts | 44° |
| 2026-05-06 14:50 | -5.57917 | -168.65012 | 38854 ft | 508 kts | 44° |
| 2026-05-06 14:50 | -5.53942 | -168.60682 | 38859 ft | 508 kts | 44° |
| 2026-05-06 14:51 | -5.49147 | -168.55459 | 38846 ft | 508 kts | 44° |
| 2026-05-06 14:51 | -5.44385 | -168.50274 | 38858 ft | 508 kts | 44° |
| 2026-05-06 14:52 | -5.39569 | -168.45032 | 38853 ft | 508 kts | 44° |
| 2026-05-06 14:52 | -5.34773 | -168.39813 | 38848 ft | 508 kts | 44° |
| 2026-05-06 14:53 | -5.30019 | -168.34641 | 38860 ft | 508 kts | 44° |
| 2026-05-06 14:53 | -5.25194 | -168.29393 | 38847 ft | 508 kts | 44° |
| 2026-05-06 14:54 | -5.20435 | -168.24218 | 38854 ft | 508 kts | 44° |
| 2026-05-06 14:54 | -5.15646 | -168.19011 | 38856 ft | 508 kts | 44° |
| 2026-05-06 14:55 | -5.10839 | -168.13789 | 38848 ft | 508 kts | 44° |
| 2026-05-06 14:55 | -5.06065 | -168.08600 | 38858 ft | 507 kts | 44° |
| 2026-05-06 14:56 | -5.01282 | -168.03370 | 38848 ft | 508 kts | 45° |
| 2026-05-06 14:56 | -4.96618 | -167.98081 | 38853 ft | 507 kts | 46° |
| 2026-05-06 14:57 | -4.92009 | -167.92772 | 38855 ft | 506 kts | 46° |
| 2026-05-06 14:57 | -4.87362 | -167.87401 | 38845 ft | 506 kts | 46° |
| 2026-05-06 14:58 | -4.82783 | -167.82107 | 38854 ft | 506 kts | 46° |
| 2026-05-06 14:58 | -4.78164 | -167.76769 | 38854 ft | 506 kts | 46° |
| 2026-05-06 14:59 | -4.73560 | -167.71450 | 38845 ft | 506 kts | 46° |
| 2026-05-06 14:59 | -4.68941 | -167.66115 | 38854 ft | 506 kts | 46° |
| 2026-05-06 15:00 | -4.64330 | -167.60791 | 38840 ft | 506 kts | 46° |
| 2026-05-06 15:00 | -4.59715 | -167.55463 | 38850 ft | 506 kts | 46° |
| 2026-05-06 15:01 | -4.55131 | -167.50176 | 38848 ft | 506 kts | 46° |
| 2026-05-06 15:01 | -4.50519 | -167.44852 | 38839 ft | 505 kts | 46° |
| 2026-05-06 15:02 | -4.45910 | -167.39534 | 38851 ft | 505 kts | 46° |
| 2026-05-06 15:02 | -4.41301 | -167.34218 | 38840 ft | 505 kts | 46° |
| 2026-05-06 15:03 | -4.36690 | -167.28899 | 38842 ft | 505 kts | 46° |
| 2026-05-06 15:03 | -4.32085 | -167.23590 | 38850 ft | 505 kts | 46° |
| 2026-05-06 15:04 | -4.27514 | -167.18320 | 38836 ft | 504 kts | 46° |
| 2026-05-06 15:04 | -4.22878 | -167.12978 | 38847 ft | 504 kts | 46° |
| 2026-05-06 15:05 | -4.18311 | -167.07719 | 38844 ft | 504 kts | 46° |
| 2026-05-06 15:05 | -4.13722 | -167.02430 | 38838 ft | 503 kts | 46° |
| 2026-05-06 15:06 | -4.09120 | -166.97131 | 38851 ft | 503 kts | 46° |
| 2026-05-06 15:06 | -4.04529 | -166.91843 | 38838 ft | 503 kts | 46° |
| 2026-05-06 15:07 | -3.99948 | -166.86566 | 38842 ft | 502 kts | 46° |
| 2026-05-06 15:07 | -3.95362 | -166.81287 | 38847 ft | 501 kts | 46° |
| 2026-05-06 15:08 | -3.90817 | -166.76055 | 38835 ft | 501 kts | 46° |
| 2026-05-06 15:08 | -3.86240 | -166.70788 | 38848 ft | 501 kts | 46° |
| 2026-05-06 15:09 | -3.81665 | -166.65524 | 38840 ft | 500 kts | 46° |
| 2026-05-06 15:09 | -3.77095 | -166.60267 | 38839 ft | 500 kts | 46° |
| 2026-05-06 15:10 | -3.72520 | -166.55004 | 38848 ft | 500 kts | 46° |
| 2026-05-06 15:10 | -3.67982 | -166.49786 | 38835 ft | 500 kts | 46° |
| 2026-05-06 15:11 | -3.63384 | -166.44499 | 38844 ft | 500 kts | 46° |
| 2026-05-06 15:11 | -3.58844 | -166.39281 | 38843 ft | 500 kts | 46° |
| 2026-05-06 15:12 | -3.54277 | -166.34032 | 38835 ft | 500 kts | 46° |
| 2026-05-06 15:12 | -3.49709 | -166.28781 | 38847 ft | 500 kts | 46° |
| 2026-05-06 15:13 | -3.45142 | -166.23534 | 38836 ft | 500 kts | 46° |
| 2026-05-06 15:13 | -3.40569 | -166.18280 | 38841 ft | 500 kts | 46° |
| 2026-05-06 15:14 | -3.35994 | -166.13024 | 38844 ft | 500 kts | 46° |
| 2026-05-06 15:14 | -3.31452 | -166.07809 | 38833 ft | 500 kts | 46° |
| 2026-05-06 15:15 | -3.26881 | -166.02564 | 38843 ft | 500 kts | 46° |
| 2026-05-06 15:15 | -3.22305 | -165.97312 | 38836 ft | 500 kts | 46° |
| 2026-05-06 15:16 | -3.17739 | -165.92069 | 38836 ft | 500 kts | 46° |
| 2026-05-06 15:16 | -3.13164 | -165.86814 | 38845 ft | 500 kts | 46° |
| 2026-05-06 15:17 | -3.08583 | -165.81555 | 38834 ft | 502 kts | 46° |
| 2026-05-06 15:17 | -3.03966 | -165.76259 | 38862 ft | 506 kts | 46° |
| 2026-05-06 15:18 | -2.99386 | -165.71004 | 38853 ft | 505 kts | 46° |
| 2026-05-06 15:18 | -2.94736 | -165.65669 | 38855 ft | 505 kts | 46° |
| 2026-05-06 15:19 | -2.90116 | -165.60371 | 38862 ft | 504 kts | 46° |
| 2026-05-06 15:19 | -2.85533 | -165.55117 | 38850 ft | 505 kts | 46° |
| 2026-05-06 15:20 | -2.80916 | -165.49822 | 38858 ft | 504 kts | 46° |
| 2026-05-06 15:20 | -2.76317 | -165.44550 | 38857 ft | 504 kts | 46° |
| 2026-05-06 15:21 | -2.71694 | -165.39249 | 38850 ft | 504 kts | 46° |
| 2026-05-06 15:21 | -2.67075 | -165.33957 | 38864 ft | 504 kts | 46° |
| 2026-05-06 15:22 | -2.62459 | -165.28666 | 38850 ft | 503 kts | 46° |
| 2026-05-06 15:22 | -2.57885 | -165.23424 | 38856 ft | 504 kts | 47° |
| 2026-05-06 15:23 | -2.53254 | -165.18115 | 38857 ft | 504 kts | 46° |
| 2026-05-06 15:23 | -2.48667 | -165.12863 | 38849 ft | 504 kts | 46° |
| 2026-05-06 15:24 | -2.44058 | -165.07584 | 38861 ft | 504 kts | 47° |
| 2026-05-06 15:24 | -2.39455 | -165.02312 | 38853 ft | 504 kts | 46° |
| 2026-05-06 15:25 | -2.34840 | -164.97025 | 38850 ft | 503 kts | 46° |
| 2026-05-06 15:25 | -2.30221 | -164.91734 | 38861 ft | 504 kts | 47° |
| 2026-05-06 15:26 | -2.25613 | -164.86457 | 38848 ft | 503 kts | 47° |
| 2026-05-06 15:26 | -2.21012 | -164.81188 | 38856 ft | 504 kts | 47° |
| 2026-05-06 15:27 | -2.16398 | -164.75905 | 38855 ft | 503 kts | 47° |
| 2026-05-06 15:27 | -2.11798 | -164.70640 | 38848 ft | 504 kts | 47° |
| 2026-05-06 15:28 | -2.07182 | -164.65357 | 38861 ft | 503 kts | 47° |
| 2026-05-06 15:28 | -2.02574 | -164.60082 | 38847 ft | 503 kts | 47° |
| 2026-05-06 15:29 | -1.97970 | -164.54815 | 38856 ft | 503 kts | 47° |
| 2026-05-06 15:29 | -1.93390 | -164.49575 | 38854 ft | 503 kts | 47° |
| 2026-05-06 15:30 | -1.88786 | -164.44307 | 38846 ft | 503 kts | 47° |
| 2026-05-06 15:30 | -1.84180 | -164.39036 | 38859 ft | 503 kts | 47° |
| 2026-05-06 15:31 | -1.79600 | -164.33797 | 38847 ft | 503 kts | 47° |
| 2026-05-06 15:31 | -1.74968 | -164.28499 | 38851 ft | 503 kts | 47° |
| 2026-05-06 15:32 | -1.68085 | -164.20626 | 38848 ft | 503 kts | 47° |
| 2026-05-06 15:32 | -1.63479 | -164.15358 | 38850 ft | 503 kts | 47° |
| 2026-05-06 15:33 | -1.58874 | -164.10093 | 38854 ft | 503 kts | 47° |
| 2026-05-06 15:33 | -1.54267 | -164.04824 | 38843 ft | 503 kts | 47° |
| 2026-05-06 15:34 | -1.49670 | -163.99569 | 38855 ft | 503 kts | 47° |
| 2026-05-06 15:34 | -1.45066 | -163.94305 | 38848 ft | 502 kts | 47° |
| 2026-05-06 15:35 | -1.40497 | -163.89085 | 38847 ft | 502 kts | 47° |
| 2026-05-06 15:35 | -1.35897 | -163.83826 | 38854 ft | 502 kts | 47° |
| 2026-05-06 15:36 | -1.31301 | -163.78571 | 38841 ft | 502 kts | 47° |
| 2026-05-06 15:36 | -1.26703 | -163.73314 | 38853 ft | 501 kts | 47° |
| 2026-05-06 15:37 | -1.22145 | -163.68104 | 38848 ft | 501 kts | 47° |
| 2026-05-06 15:37 | -1.17547 | -163.62849 | 38844 ft | 501 kts | 47° |
| 2026-05-06 15:38 | -1.12969 | -163.57618 | 38855 ft | 501 kts | 47° |
| 2026-05-06 15:38 | -1.08374 | -163.52367 | 38841 ft | 501 kts | 47° |
| 2026-05-06 15:39 | -1.04572 | -163.48023 | 38846 ft | 500 kts | 47° |
| 2026-05-06 15:39 | -0.99985 | -163.42784 | 38853 ft | 501 kts | 47° |
| 2026-05-06 15:40 | -0.95403 | -163.37551 | 38841 ft | 500 kts | 47° |
| 2026-05-06 15:40 | -0.90820 | -163.32311 | 38851 ft | 500 kts | 47° |
| 2026-05-06 15:41 | -0.86237 | -163.27073 | 38845 ft | 500 kts | 47° |
| 2026-05-06 15:41 | -0.81647 | -163.21830 | 38841 ft | 500 kts | 47° |
| 2026-05-06 15:42 | -0.77060 | -163.16589 | 38852 ft | 500 kts | 46° |
| 2026-05-06 15:42 | -0.72514 | -163.11395 | 38839 ft | 500 kts | 46° |
| 2026-05-06 15:43 | -0.67935 | -163.06165 | 38846 ft | 500 kts | 46° |
| 2026-05-06 15:43 | -0.63347 | -163.00924 | 38847 ft | 500 kts | 46° |
| 2026-05-06 15:44 | -0.58764 | -162.95689 | 38837 ft | 500 kts | 46° |
| 2026-05-06 15:44 | -0.54185 | -162.90461 | 38849 ft | 500 kts | 46° |
| 2026-05-06 15:45 | -0.49604 | -162.85229 | 38841 ft | 500 kts | 46° |
| 2026-05-06 15:45 | -0.45017 | -162.79991 | 38840 ft | 500 kts | 46° |
| 2026-05-06 15:46 | -0.40466 | -162.74791 | 38847 ft | 501 kts | 46° |
| 2026-05-06 15:46 | -0.35874 | -162.69545 | 38834 ft | 501 kts | 46° |
| 2026-05-06 15:47 | -0.31288 | -162.64310 | 38846 ft | 501 kts | 46° |
| 2026-05-06 15:47 | -0.26702 | -162.59070 | 38839 ft | 501 kts | 46° |
| 2026-05-06 15:48 | -0.22115 | -162.53834 | 38837 ft | 501 kts | 46° |
| 2026-05-06 15:48 | -0.17531 | -162.48596 | 38846 ft | 501 kts | 46° |
| 2026-05-06 15:49 | -0.12927 | -162.43338 | 38833 ft | 501 kts | 46° |
| 2026-05-06 15:49 | -0.08332 | -162.38092 | 38846 ft | 501 kts | 46° |
| 2026-05-06 15:50 | -0.03760 | -162.32871 | 38832 ft | 501 kts | 46° |
| 2026-05-06 15:50 | 0.00835 | -162.27621 | 38840 ft | 502 kts | 46° |
| 2026-05-06 15:51 | 0.05425 | -162.22379 | 38840 ft | 502 kts | 46° |
| 2026-05-06 15:51 | 0.10020 | -162.17131 | 38830 ft | 502 kts | 46° |
| 2026-05-06 15:52 | 0.14616 | -162.11882 | 38843 ft | 502 kts | 46° |
| 2026-05-06 15:52 | 0.19187 | -162.06661 | 38834 ft | 502 kts | 46° |
| 2026-05-06 15:53 | 0.23819 | -162.01375 | 38836 ft | 502 kts | 46° |
| 2026-05-06 15:53 | 0.28391 | -161.96153 | 38839 ft | 502 kts | 46° |
| 2026-05-06 15:54 | 0.32986 | -161.90905 | 38829 ft | 501 kts | 46° |
| 2026-05-06 15:54 | 0.37580 | -161.85657 | 38841 ft | 502 kts | 46° |
| 2026-05-06 15:55 | 0.42179 | -161.80402 | 38831 ft | 501 kts | 46° |
| 2026-05-06 15:55 | 0.46770 | -161.75158 | 38832 ft | 501 kts | 46° |
| 2026-05-06 15:56 | 0.51368 | -161.69907 | 38839 ft | 501 kts | 46° |
| 2026-05-06 15:56 | 0.55956 | -161.64667 | 38826 ft | 501 kts | 46° |
| 2026-05-06 15:57 | 0.60543 | -161.59427 | 38838 ft | 501 kts | 46° |
| 2026-05-06 15:57 | 0.65126 | -161.54192 | 38831 ft | 501 kts | 46° |
| 2026-05-06 15:58 | 0.69694 | -161.48974 | 38828 ft | 501 kts | 46° |
| 2026-05-06 15:58 | 0.74300 | -161.43712 | 38838 ft | 501 kts | 46° |
| 2026-05-06 15:59 | 0.78859 | -161.38504 | 38825 ft | 500 kts | 46° |
| 2026-05-06 15:59 | 0.83449 | -161.33260 | 38834 ft | 500 kts | 46° |
| 2026-05-06 16:00 | 0.88036 | -161.28020 | 38831 ft | 500 kts | 46° |
| 2026-05-06 16:00 | 0.92620 | -161.22783 | 38824 ft | 500 kts | 46° |
| 2026-05-06 16:01 | 0.97194 | -161.17556 | 38837 ft | 500 kts | 46° |
| 2026-05-06 16:01 | 1.01779 | -161.12318 | 38824 ft | 500 kts | 46° |
| 2026-05-06 16:02 | 1.06358 | -161.07085 | 38830 ft | 500 kts | 46° |
| 2026-05-06 16:02 | 1.10915 | -161.01877 | 38838 ft | 500 kts | 46° |
| 2026-05-06 16:03 | 1.15494 | -160.96645 | 38824 ft | 500 kts | 46° |
| 2026-05-06 16:03 | 1.20078 | -160.91409 | 38832 ft | 500 kts | 47° |
| 2026-05-06 16:04 | 1.24657 | -160.86175 | 38832 ft | 500 kts | 47° |
| 2026-05-06 16:04 | 1.29230 | -160.80949 | 38825 ft | 500 kts | 47° |
| 2026-05-06 16:05 | 1.33813 | -160.75709 | 38835 ft | 500 kts | 47° |
| 2026-05-06 16:05 | 1.38365 | -160.70505 | 38823 ft | 500 kts | 47° |
| 2026-05-06 16:06 | 1.42955 | -160.65259 | 38830 ft | 501 kts | 47° |
| 2026-05-06 16:06 | 1.47535 | -160.60024 | 38833 ft | 500 kts | 47° |
| 2026-05-06 16:07 | 1.52106 | -160.54796 | 38821 ft | 500 kts | 47° |
| 2026-05-06 16:07 | 1.56690 | -160.49553 | 38833 ft | 500 kts | 47° |
| 2026-05-06 16:08 | 1.61275 | -160.44310 | 38824 ft | 500 kts | 47° |
| 2026-05-06 16:08 | 1.65859 | -160.39072 | 38825 ft | 501 kts | 47° |
| 2026-05-06 16:09 | 1.70446 | -160.33823 | 38832 ft | 501 kts | 47° |
| 2026-05-06 16:09 | 1.75027 | -160.28582 | 38819 ft | 500 kts | 47° |
| 2026-05-06 16:10 | 1.79605 | -160.23351 | 38830 ft | 500 kts | 47° |
| 2026-05-06 16:10 | 1.84191 | -160.18104 | 38824 ft | 501 kts | 47° |
| 2026-05-06 16:11 | 1.88746 | -160.12889 | 38817 ft | 500 kts | 47° |
| 2026-05-06 16:11 | 1.93324 | -160.07653 | 38831 ft | 501 kts | 47° |
| 2026-05-06 16:12 | 1.97906 | -160.02410 | 38817 ft | 500 kts | 47° |
| 2026-05-06 16:12 | 2.02557 | -159.97244 | 38828 ft | 500 kts | 46° |
| 2026-05-06 16:13 | 2.07264 | -159.92112 | 38826 ft | 500 kts | 46° |
| 2026-05-06 16:13 | 2.11972 | -159.87002 | 38822 ft | 500 kts | 46° |
| 2026-05-06 16:14 | 2.16693 | -159.81871 | 38830 ft | 500 kts | 46° |
| 2026-05-06 16:14 | 2.21377 | -159.76776 | 38817 ft | 500 kts | 46° |
| 2026-05-06 16:15 | 2.26090 | -159.71651 | 38828 ft | 500 kts | 46° |
| 2026-05-06 16:15 | 2.30801 | -159.66528 | 38822 ft | 500 kts | 46° |
| 2026-05-06 16:16 | 2.35510 | -159.61410 | 38817 ft | 500 kts | 46° |
| 2026-05-06 16:16 | 2.40217 | -159.56291 | 38829 ft | 500 kts | 46° |
| 2026-05-06 16:17 | 2.44897 | -159.51198 | 38816 ft | 500 kts | 46° |
| 2026-05-06 16:17 | 2.49605 | -159.46077 | 38826 ft | 500 kts | 46° |
| 2026-05-06 16:18 | 2.54311 | -159.40960 | 38824 ft | 500 kts | 46° |
| 2026-05-06 16:18 | 2.59015 | -159.35842 | 38815 ft | 500 kts | 46° |
| 2026-05-06 16:19 | 2.63720 | -159.30720 | 38828 ft | 500 kts | 46° |
| 2026-05-06 16:19 | 2.68438 | -159.25585 | 38819 ft | 500 kts | 46° |
| 2026-05-06 16:20 | 2.73132 | -159.20475 | 38820 ft | 500 kts | 46° |
| 2026-05-06 16:20 | 2.77840 | -159.15350 | 38828 ft | 500 kts | 46° |
| 2026-05-06 16:21 | 2.82519 | -159.10260 | 38816 ft | 500 kts | 46° |
| 2026-05-06 16:21 | 2.87245 | -159.05116 | 38828 ft | 500 kts | 46° |
| 2026-05-06 16:22 | 2.91925 | -159.00019 | 38820 ft | 500 kts | 46° |
| 2026-05-06 16:22 | 2.96630 | -158.94896 | 38820 ft | 500 kts | 46° |
| 2026-05-06 16:23 | 3.01335 | -158.89767 | 38827 ft | 500 kts | 46° |
| 2026-05-06 16:23 | 3.06041 | -158.84637 | 38814 ft | 500 kts | 46° |
| 2026-05-06 16:24 | 3.10747 | -158.79509 | 38826 ft | 500 kts | 46° |
| 2026-05-06 16:24 | 3.15451 | -158.74386 | 38822 ft | 500 kts | 46° |
| 2026-05-06 16:25 | 3.20170 | -158.69242 | 38815 ft | 500 kts | 46° |
| 2026-05-06 16:25 | 3.24874 | -158.64112 | 38828 ft | 501 kts | 46° |
| 2026-05-06 16:26 | 3.29546 | -158.59019 | 38817 ft | 501 kts | 46° |
| 2026-05-06 16:26 | 3.33499 | -158.54709 | 38819 ft | 501 kts | 46° |
| 2026-05-06 16:27 | 3.38224 | -158.49555 | 38825 ft | 501 kts | 46° |
| 2026-05-06 16:27 | 3.42907 | -158.44448 | 38815 ft | 501 kts | 46° |
| 2026-05-06 16:28 | 3.47629 | -158.39296 | 38825 ft | 502 kts | 46° |
| 2026-05-06 16:28 | 3.52352 | -158.34144 | 38822 ft | 502 kts | 46° |
| 2026-05-06 16:29 | 3.57083 | -158.28982 | 38817 ft | 502 kts | 46° |
| 2026-05-06 16:29 | 3.61777 | -158.23858 | 38829 ft | 503 kts | 46° |
| 2026-05-06 16:30 | 3.65737 | -158.19536 | 38816 ft | 503 kts | 46° |
| 2026-05-06 16:30 | 3.71264 | -158.13504 | 38826 ft | 503 kts | 46° |
| 2026-05-06 16:31 | 3.75969 | -158.08365 | 38822 ft | 503 kts | 46° |
| 2026-05-06 16:31 | 3.80698 | -158.03199 | 38818 ft | 503 kts | 46° |
| 2026-05-06 16:32 | 3.85435 | -157.98026 | 38827 ft | 503 kts | 46° |
| 2026-05-06 16:32 | 3.90167 | -157.92858 | 38819 ft | 503 kts | 46° |
| 2026-05-06 16:33 | 3.94900 | -157.87684 | 38823 ft | 503 kts | 46° |
| 2026-05-06 16:34 | 4.01998 | -157.79925 | 38821 ft | 503 kts | 46° |
| 2026-05-06 16:34 | 4.06698 | -157.74786 | 38822 ft | 503 kts | 46° |
| 2026-05-06 16:35 | 4.11423 | -157.69621 | 38831 ft | 503 kts | 46° |
| 2026-05-06 16:35 | 4.16162 | -157.64437 | 38818 ft | 503 kts | 46° |
| 2026-05-06 16:36 | 4.20879 | -157.59282 | 38831 ft | 503 kts | 46° |
| 2026-05-06 16:36 | 4.25624 | -157.54088 | 38823 ft | 503 kts | 46° |
| 2026-05-06 16:37 | 4.30352 | -157.48913 | 38824 ft | 503 kts | 46° |
| 2026-05-06 16:37 | 4.35079 | -157.43739 | 38833 ft | 504 kts | 46° |
| 2026-05-06 16:38 | 4.39781 | -157.38591 | 38821 ft | 503 kts | 46° |
| 2026-05-06 16:38 | 4.44543 | -157.33377 | 38831 ft | 503 kts | 46° |
| 2026-05-06 16:39 | 4.49246 | -157.28235 | 38832 ft | 504 kts | 46° |
| 2026-05-06 16:39 | 4.53975 | -157.23053 | 38822 ft | 504 kts | 46° |
| 2026-05-06 16:40 | 4.58703 | -157.17869 | 38834 ft | 504 kts | 46° |
| 2026-05-06 16:40 | 4.63436 | -157.12682 | 38828 ft | 503 kts | 46° |
| 2026-05-06 16:41 | 4.68170 | -157.07495 | 38828 ft | 504 kts | 46° |
| 2026-05-06 16:41 | 4.72897 | -157.02310 | 38838 ft | 504 kts | 46° |
| 2026-05-06 16:42 | 4.77595 | -156.97158 | 38826 ft | 504 kts | 46° |
| 2026-05-06 16:42 | 4.82323 | -156.91971 | 38836 ft | 503 kts | 46° |
| 2026-05-06 16:43 | 4.87051 | -156.86786 | 38836 ft | 504 kts | 46° |
| 2026-05-06 16:43 | 4.91779 | -156.81597 | 38828 ft | 503 kts | 46° |
| 2026-05-06 16:44 | 4.96513 | -156.76402 | 38842 ft | 504 kts | 46° |
| 2026-05-06 16:44 | 5.01238 | -156.71214 | 38832 ft | 503 kts | 45° |
| 2026-05-06 16:45 | 5.05958 | -156.66034 | 38835 ft | 503 kts | 45° |
| 2026-05-06 16:45 | 5.10653 | -156.60878 | 38842 ft | 503 kts | 45° |
| 2026-05-06 16:46 | 5.15375 | -156.55689 | 38831 ft | 503 kts | 45° |
| 2026-05-06 16:46 | 5.20090 | -156.50506 | 38844 ft | 503 kts | 45° |
| 2026-05-06 16:47 | 5.24803 | -156.45327 | 38839 ft | 502 kts | 45° |
| 2026-05-06 16:47 | 5.29525 | -156.40135 | 38838 ft | 502 kts | 45° |
| 2026-05-06 16:48 | 5.34204 | -156.34991 | 38849 ft | 502 kts | 45° |
| 2026-05-06 16:48 | 5.38941 | -156.29780 | 38836 ft | 502 kts | 45° |
| 2026-05-06 16:49 | 5.43618 | -156.24639 | 38846 ft | 502 kts | 45° |
| 2026-05-06 16:49 | 5.48340 | -156.19444 | 38846 ft | 501 kts | 45° |
| 2026-05-06 16:50 | 5.53012 | -156.14299 | 38839 ft | 501 kts | 45° |
| 2026-05-06 16:50 | 5.57713 | -156.09121 | 38853 ft | 501 kts | 45° |
| 2026-05-06 16:51 | 5.62404 | -156.03954 | 38843 ft | 501 kts | 45° |
| 2026-05-06 16:51 | 5.67092 | -155.98791 | 38850 ft | 501 kts | 45° |
| 2026-05-06 16:52 | 5.71804 | -155.93600 | 38857 ft | 501 kts | 45° |
| 2026-05-06 16:52 | 5.76509 | -155.88414 | 38846 ft | 501 kts | 45° |
| 2026-05-06 16:53 | 5.81170 | -155.83276 | 38859 ft | 501 kts | 45° |
| 2026-05-06 16:53 | 5.85863 | -155.78101 | 38854 ft | 501 kts | 45° |
| 2026-05-06 16:54 | 5.90553 | -155.72927 | 38853 ft | 501 kts | 45° |
| 2026-05-06 16:54 | 5.95252 | -155.67743 | 38864 ft | 501 kts | 45° |
| 2026-05-06 16:55 | 5.99947 | -155.62562 | 38852 ft | 501 kts | 45° |
| 2026-05-06 16:55 | 6.04638 | -155.57383 | 38862 ft | 501 kts | 45° |
| 2026-05-06 16:56 | 6.09335 | -155.52197 | 38864 ft | 502 kts | 45° |
| 2026-05-06 16:56 | 6.14033 | -155.47008 | 38856 ft | 502 kts | 45° |
| 2026-05-06 16:57 | 6.18705 | -155.41850 | 38871 ft | 502 kts | 45° |
| 2026-05-06 16:57 | 6.23430 | -155.36627 | 38860 ft | 502 kts | 45° |
| 2026-05-06 16:58 | 6.28110 | -155.31454 | 38866 ft | 503 kts | 45° |
| 2026-05-06 16:58 | 6.32815 | -155.26249 | 38873 ft | 503 kts | 45° |
| 2026-05-06 16:59 | 6.37531 | -155.21032 | 38862 ft | 503 kts | 46° |
| 2026-05-06 16:59 | 6.42237 | -155.15824 | 38875 ft | 503 kts | 46° |
| 2026-05-06 17:00 | 6.46952 | -155.10607 | 38871 ft | 504 kts | 46° |
| 2026-05-06 17:00 | 6.51665 | -155.05388 | 38868 ft | 504 kts | 46° |
| 2026-05-06 17:01 | 6.56386 | -155.00160 | 38865 ft | 504 kts | 46° |
| 2026-05-06 17:01 | 6.61105 | -154.94933 | 38852 ft | 504 kts | 46° |
| 2026-05-06 17:02 | 6.65783 | -154.89749 | 38866 ft | 505 kts | 46° |
| 2026-05-06 17:02 | 6.70505 | -154.84514 | 38862 ft | 505 kts | 46° |
| 2026-05-06 17:03 | 6.75232 | -154.79272 | 38860 ft | 505 kts | 46° |
| 2026-05-06 17:03 | 6.79949 | -154.74041 | 38872 ft | 505 kts | 46° |
| 2026-05-06 17:04 | 6.84675 | -154.68798 | 38860 ft | 505 kts | 46° |
| 2026-05-06 17:04 | 6.89399 | -154.63554 | 38869 ft | 506 kts | 46° |
| 2026-05-06 17:05 | 6.94125 | -154.58310 | 38870 ft | 505 kts | 46° |
| 2026-05-06 17:05 | 6.98822 | -154.53094 | 38863 ft | 506 kts | 46° |
| 2026-05-06 17:06 | 7.03548 | -154.47845 | 38877 ft | 506 kts | 46° |
| 2026-05-06 17:06 | 7.08283 | -154.42580 | 38869 ft | 506 kts | 46° |
| 2026-05-06 17:07 | 7.12968 | -154.37371 | 38872 ft | 506 kts | 46° |
| 2026-05-06 17:07 | 7.17698 | -154.32111 | 38881 ft | 507 kts | 46° |
| 2026-05-06 17:08 | 7.22429 | -154.26848 | 38869 ft | 507 kts | 46° |
| 2026-05-06 17:08 | 7.27164 | -154.21579 | 38881 ft | 507 kts | 46° |
| 2026-05-06 17:09 | 7.31897 | -154.16311 | 38879 ft | 507 kts | 46° |
| 2026-05-06 17:09 | 7.36637 | -154.11035 | 38875 ft | 508 kts | 45° |
| 2026-05-06 17:10 | 7.41376 | -154.05756 | 38888 ft | 508 kts | 46° |
| 2026-05-06 17:10 | 7.46104 | -154.00485 | 38876 ft | 508 kts | 45° |
| 2026-05-06 17:11 | 7.50868 | -153.95175 | 38887 ft | 509 kts | 45° |
| 2026-05-06 17:11 | 7.55590 | -153.89912 | 38888 ft | 509 kts | 45° |
| 2026-05-06 17:12 | 7.60337 | -153.84616 | 38879 ft | 509 kts | 45° |
| 2026-05-06 17:12 | 7.64207 | -153.80297 | 38891 ft | 509 kts | 45° |
| 2026-05-06 17:13 | 7.68991 | -153.74959 | 38888 ft | 509 kts | 45° |
| 2026-05-06 17:13 | 7.73705 | -153.69696 | 38885 ft | 509 kts | 45° |
| 2026-05-06 17:14 | 7.78451 | -153.64393 | 38898 ft | 509 kts | 45° |
| 2026-05-06 17:14 | 7.83206 | -153.59079 | 38888 ft | 509 kts | 45° |
| 2026-05-06 17:15 | 7.87955 | -153.53769 | 38895 ft | 509 kts | 45° |
| 2026-05-06 17:15 | 7.92710 | -153.48453 | 38901 ft | 510 kts | 45° |
| 2026-05-06 17:16 | 7.97429 | -153.43174 | 38889 ft | 510 kts | 45° |
| 2026-05-06 17:16 | 8.02177 | -153.37860 | 38904 ft | 511 kts | 45° |
| 2026-05-06 17:17 | 8.06943 | -153.32525 | 38921 ft | 512 kts | 45° |
| 2026-05-06 17:17 | 8.11725 | -153.27169 | 38924 ft | 512 kts | 45° |
| 2026-05-06 17:18 | 8.16498 | -153.21822 | 38919 ft | 513 kts | 45° |
| 2026-05-06 17:18 | 8.21262 | -153.16483 | 38931 ft | 513 kts | 46° |
| 2026-05-06 17:19 | 8.26051 | -153.11113 | 38919 ft | 514 kts | 46° |
| 2026-05-06 17:19 | 8.30840 | -153.05742 | 38928 ft | 514 kts | 46° |
| 2026-05-06 17:20 | 8.35636 | -153.00360 | 38932 ft | 515 kts | 46° |
| 2026-05-06 17:20 | 8.40389 | -152.95024 | 38921 ft | 515 kts | 46° |
| 2026-05-06 17:21 | 8.45188 | -152.89635 | 38936 ft | 516 kts | 46° |
| 2026-05-06 17:21 | 8.49992 | -152.84238 | 38931 ft | 516 kts | 46° |
| 2026-05-06 17:22 | 8.54790 | -152.78846 | 38928 ft | 517 kts | 46° |
| 2026-05-06 17:22 | 8.59593 | -152.73445 | 38940 ft | 517 kts | 46° |
| 2026-05-06 17:23 | 8.64406 | -152.68031 | 38929 ft | 517 kts | 46° |
| 2026-05-06 17:23 | 8.69210 | -152.62626 | 38938 ft | 517 kts | 46° |
| 2026-05-06 17:24 | 8.74029 | -152.57201 | 38942 ft | 518 kts | 46° |
| 2026-05-06 17:24 | 8.78833 | -152.51794 | 38934 ft | 518 kts | 46° |
| 2026-05-06 17:25 | 8.83653 | -152.46362 | 38947 ft | 518 kts | 46° |
| 2026-05-06 17:25 | 8.88469 | -152.40931 | 38937 ft | 519 kts | 46° |
| 2026-05-06 17:26 | 8.93298 | -152.35486 | 38943 ft | 519 kts | 46° |
| 2026-05-06 17:26 | 8.98114 | -152.30054 | 38949 ft | 520 kts | 46° |
| 2026-05-06 17:27 | 9.02894 | -152.24658 | 38938 ft | 520 kts | 46° |
| 2026-05-06 17:27 | 9.07743 | -152.19183 | 38951 ft | 521 kts | 46° |
| 2026-05-06 17:28 | 9.12575 | -152.13725 | 38947 ft | 521 kts | 46° |
| 2026-05-06 17:28 | 9.17415 | -152.08256 | 38945 ft | 521 kts | 46° |
| 2026-05-06 17:29 | 9.22260 | -152.02780 | 38956 ft | 522 kts | 46° |
| 2026-05-06 17:29 | 9.27108 | -151.97301 | 38945 ft | 524 kts | 46° |
| 2026-05-06 17:30 | 9.31938 | -151.91831 | 38955 ft | 524 kts | 47° |
| 2026-05-06 17:30 | 9.36823 | -151.86298 | 38956 ft | 524 kts | 47° |
| 2026-05-06 17:31 | 9.41657 | -151.80822 | 38948 ft | 524 kts | 47° |
| 2026-05-06 17:31 | 9.46511 | -151.75322 | 38962 ft | 525 kts | 47° |
| 2026-05-06 17:32 | 9.51378 | -151.69804 | 38954 ft | 525 kts | 47° |
| 2026-05-06 17:32 | 9.56241 | -151.64289 | 38956 ft | 524 kts | 47° |
| 2026-05-06 17:33 | 9.61101 | -151.58774 | 38966 ft | 525 kts | 47° |
| 2026-05-06 17:33 | 9.65972 | -151.53243 | 38953 ft | 525 kts | 47° |
| 2026-05-06 17:34 | 9.70800 | -151.47760 | 38965 ft | 525 kts | 47° |
| 2026-05-06 17:34 | 9.75659 | -151.42238 | 38963 ft | 524 kts | 47° |
| 2026-05-06 17:35 | 9.80518 | -151.36715 | 38959 ft | 524 kts | 47° |
| 2026-05-06 17:35 | 9.85379 | -151.31186 | 38972 ft | 525 kts | 47° |
| 2026-05-06 17:36 | 9.92653 | -151.22909 | 38959 ft | 524 kts | 47° |
| 2026-05-06 17:36 | 9.97508 | -151.17380 | 38974 ft | 524 kts | 47° |
| 2026-05-06 17:37 | 10.02367 | -151.11843 | 38963 ft | 526 kts | 47° |
| 2026-05-06 17:37 | 10.07196 | -151.06338 | 38971 ft | 526 kts | 47° |
| 2026-05-06 17:38 | 10.12063 | -151.00787 | 38975 ft | 526 kts | 47° |
| 2026-05-06 17:38 | 10.16930 | -150.95234 | 38965 ft | 525 kts | 47° |
| 2026-05-06 17:39 | 10.21783 | -150.89695 | 38975 ft | 525 kts | 47° |
| 2026-05-06 17:39 | 10.26643 | -150.84149 | 38976 ft | 525 kts | 47° |
| 2026-05-06 17:40 | 10.31502 | -150.78593 | 38968 ft | 525 kts | 47° |
| 2026-05-06 17:40 | 10.36327 | -150.73075 | 38982 ft | 525 kts | 47° |
| 2026-05-06 17:41 | 10.41182 | -150.67521 | 38973 ft | 525 kts | 47° |
| 2026-05-06 17:41 | 10.46038 | -150.61963 | 38977 ft | 525 kts | 47° |
| 2026-05-06 17:42 | 10.50884 | -150.56415 | 38985 ft | 525 kts | 47° |
| 2026-05-06 17:42 | 10.55736 | -150.50855 | 38972 ft | 525 kts | 47° |
| 2026-05-06 17:43 | 10.60566 | -150.45319 | 38985 ft | 525 kts | 47° |
| 2026-05-06 17:43 | 10.65412 | -150.39763 | 38982 ft | 526 kts | 47° |
| 2026-05-06 17:44 | 10.70290 | -150.34166 | 38977 ft | 525 kts | 47° |
| 2026-05-06 17:44 | 10.75106 | -150.28637 | 38990 ft | 526 kts | 47° |
| 2026-05-06 17:45 | 10.79955 | -150.23067 | 38979 ft | 527 kts | 47° |
| 2026-05-06 17:45 | 10.84814 | -150.17483 | 38987 ft | 527 kts | 47° |
| 2026-05-06 17:46 | 10.89678 | -150.11894 | 38991 ft | 527 kts | 47° |
| 2026-05-06 17:46 | 10.94540 | -150.06302 | 38980 ft | 528 kts | 47° |
| 2026-05-06 17:47 | 10.99451 | -150.00726 | 38993 ft | 528 kts | 45° |
| 2026-05-06 17:47 | 11.04619 | -149.95420 | 38988 ft | 529 kts | 43° |
| 2026-05-06 17:48 | 11.09899 | -149.90200 | 38987 ft | 530 kts | 43° |
| 2026-05-06 17:48 | 11.15174 | -149.84997 | 38996 ft | 530 kts | 43° |
| 2026-05-06 17:49 | 11.20466 | -149.79762 | 38983 ft | 531 kts | 43° |
| 2026-05-06 17:49 | 11.25762 | -149.74516 | 38997 ft | 531 kts | 43° |
| 2026-05-06 17:50 | 11.31062 | -149.69262 | 38993 ft | 531 kts | 43° |
| 2026-05-06 17:50 | 11.36358 | -149.64009 | 38990 ft | 532 kts | 43° |
| 2026-05-06 17:51 | 11.41661 | -149.58747 | 39003 ft | 532 kts | 43° |
| 2026-05-06 17:51 | 11.46961 | -149.53485 | 38996 ft | 532 kts | 43° |
| 2026-05-06 17:52 | 11.52236 | -149.48245 | 38999 ft | 532 kts | 43° |
| 2026-05-06 17:52 | 11.57526 | -149.42987 | 39007 ft | 532 kts | 43° |
| 2026-05-06 17:53 | 11.62834 | -149.37707 | 38994 ft | 532 kts | 43° |
| 2026-05-06 17:53 | 11.68138 | -149.32429 | 39007 ft | 533 kts | 43° |
| 2026-05-06 17:54 | 11.73447 | -149.27144 | 39003 ft | 533 kts | 43° |
| 2026-05-06 17:54 | 11.78744 | -149.21866 | 38999 ft | 532 kts | 43° |
| 2026-05-06 17:55 | 11.84049 | -149.16579 | 39011 ft | 532 kts | 43° |
| 2026-05-06 17:55 | 11.89315 | -149.11327 | 38999 ft | 532 kts | 43° |
| 2026-05-06 17:56 | 11.94638 | -149.06015 | 39008 ft | 532 kts | 43° |
| 2026-05-06 17:56 | 11.99897 | -149.00766 | 39007 ft | 531 kts | 43° |
| 2026-05-06 17:57 | 12.05205 | -148.95462 | 39004 ft | 534 kts | 43° |
| 2026-05-06 17:57 | 12.10511 | -148.90157 | 39013 ft | 533 kts | 42° |
| 2026-05-06 17:58 | 12.15811 | -148.84856 | 39007 ft | 533 kts | 42° |
| 2026-05-06 17:58 | 12.21112 | -148.79551 | 39004 ft | 532 kts | 42° |
| 2026-05-06 17:59 | 12.26409 | -148.74248 | 39018 ft | 533 kts | 42° |
| 2026-05-06 17:59 | 12.30819 | -148.69828 | 39005 ft | 533 kts | 42° |
| 2026-05-06 18:00 | 12.36979 | -148.63654 | 39015 ft | 533 kts | 42° |
| 2026-05-06 18:00 | 12.41420 | -148.59199 | 39016 ft | 533 kts | 42° |
| 2026-05-06 18:01 | 12.46679 | -148.53922 | 39009 ft | 533 kts | 42° |
| 2026-05-06 18:01 | 12.51969 | -148.48607 | 39025 ft | 533 kts | 42° |
| 2026-05-06 18:02 | 12.57262 | -148.43286 | 39031 ft | 532 kts | 42° |
| 2026-05-06 18:02 | 12.62554 | -148.37967 | 39020 ft | 532 kts | 42° |
| 2026-05-06 18:03 | 12.67843 | -148.32645 | 39033 ft | 533 kts | 42° |
| 2026-05-06 18:03 | 12.73144 | -148.27310 | 39029 ft | 533 kts | 42° |
| 2026-05-06 18:04 | 12.78430 | -148.21986 | 39025 ft | 533 kts | 42° |
| 2026-05-06 18:04 | 12.83718 | -148.16652 | 39036 ft | 534 kts | 42° |
| 2026-05-06 18:05 | 12.89008 | -148.11314 | 39024 ft | 534 kts | 42° |
| 2026-05-06 18:05 | 12.94274 | -148.06003 | 39035 ft | 534 kts | 42° |
| 2026-05-06 18:06 | 12.99559 | -148.00667 | 39034 ft | 535 kts | 42° |
| 2026-05-06 18:06 | 13.04857 | -147.95309 | 39025 ft | 534 kts | 42° |
| 2026-05-06 18:07 | 13.10154 | -147.89951 | 39039 ft | 534 kts | 42° |
| 2026-05-06 18:07 | 13.15451 | -147.84592 | 39028 ft | 535 kts | 42° |
| 2026-05-06 18:08 | 13.20757 | -147.79223 | 39035 ft | 535 kts | 42° |
| 2026-05-06 18:08 | 13.26047 | -147.73862 | 39037 ft | 535 kts | 42° |
| 2026-05-06 18:09 | 13.31345 | -147.68489 | 39029 ft | 536 kts | 41° |
| 2026-05-06 18:09 | 13.36647 | -147.63111 | 39043 ft | 536 kts | 42° |
| 2026-05-06 18:10 | 13.41948 | -147.57730 | 39032 ft | 536 kts | 42° |
| 2026-05-06 18:10 | 13.47207 | -147.52387 | 39037 ft | 535 kts | 42° |
| 2026-05-06 18:11 | 13.52499 | -147.47008 | 39043 ft | 535 kts | 41° |
| 2026-05-06 18:11 | 13.57800 | -147.41615 | 39031 ft | 535 kts | 41° |
| 2026-05-06 18:12 | 13.63081 | -147.36241 | 39044 ft | 535 kts | 41° |
| 2026-05-06 18:12 | 13.68387 | -147.30837 | 39037 ft | 536 kts | 41° |
| 2026-05-06 18:13 | 13.73680 | -147.25443 | 39036 ft | 536 kts | 41° |
| 2026-05-06 18:13 | 13.78964 | -147.20053 | 39046 ft | 536 kts | 41° |
| 2026-05-06 18:14 | 13.84271 | -147.14637 | 39033 ft | 535 kts | 41° |
| 2026-05-06 18:14 | 13.89536 | -147.09260 | 39044 ft | 535 kts | 41° |
| 2026-05-06 18:15 | 13.94820 | -147.03860 | 39042 ft | 536 kts | 41° |
| 2026-05-06 18:15 | 14.00099 | -146.98464 | 39035 ft | 535 kts | 41° |
| 2026-05-06 18:16 | 14.05390 | -146.93048 | 39050 ft | 537 kts | 41° |
| 2026-05-06 18:16 | 14.10665 | -146.87650 | 39028 ft | 532 kts | 42° |
| 2026-05-06 18:17 | 14.15952 | -146.82230 | 39040 ft | 534 kts | 42° |
| 2026-05-06 18:17 | 14.21185 | -146.76861 | 39038 ft | 533 kts | 42° |
| 2026-05-06 18:18 | 14.26453 | -146.71455 | 39031 ft | 533 kts | 42° |
| 2026-05-06 18:18 | 14.31710 | -146.66057 | 39044 ft | 533 kts | 42° |
| 2026-05-06 18:19 | 14.36969 | -146.60652 | 39033 ft | 534 kts | 42° |
| 2026-05-06 18:19 | 14.42231 | -146.55242 | 39037 ft | 533 kts | 42° |
| 2026-05-06 18:20 | 14.47485 | -146.49838 | 39043 ft | 534 kts | 42° |
| 2026-05-06 18:20 | 14.52704 | -146.44461 | 39031 ft | 533 kts | 42° |
| 2026-05-06 18:21 | 14.57959 | -146.39045 | 39044 ft | 534 kts | 42° |
| 2026-05-06 18:21 | 14.63210 | -146.33630 | 39038 ft | 534 kts | 42° |
| 2026-05-06 18:22 | 14.68467 | -146.28204 | 39036 ft | 534 kts | 42° |
| 2026-05-06 18:22 | 14.73728 | -146.22776 | 39045 ft | 533 kts | 42° |
| 2026-05-06 18:23 | 14.78976 | -146.17355 | 39036 ft | 534 kts | 42° |
| 2026-05-06 18:23 | 14.84219 | -146.11926 | 39041 ft | 534 kts | 42° |
| 2026-05-06 18:24 | 14.89646 | -146.06799 | 38999 ft | 528 kts | 32° |
| 2026-05-06 18:24 | 14.95881 | -146.02860 | 39057 ft | 524 kts | 25° |
| 2026-05-06 18:25 | 15.02274 | -145.99238 | 39036 ft | 523 kts | 24° |
| 2026-05-06 18:25 | 15.08637 | -145.95596 | 39041 ft | 522 kts | 25° |
| 2026-05-06 18:26 | 15.14981 | -145.91910 | 39047 ft | 523 kts | 25° |
| 2026-05-06 18:26 | 15.21327 | -145.88200 | 39037 ft | 523 kts | 25° |
| 2026-05-06 18:27 | 15.27653 | -145.84499 | 39046 ft | 522 kts | 25° |
| 2026-05-06 18:27 | 15.33977 | -145.80803 | 39046 ft | 523 kts | 25° |
| 2026-05-06 18:28 | 15.40319 | -145.77086 | 39038 ft | 522 kts | 25° |